<?xml version="1.0" encoding="UTF-8" standalone="no" ?>
<gpx xmlns="http://www.topografix.com/GPX/1/1" xmlns:xsi="http://www.w3.org/2001/XMLSchema-instance" xsi:schemaLocation="http://www.topografix.com/GPX/1/1 http://www.topografix.com/GPX/1/1/gpx.xsd" version="1.1" creator="VisuGPX - https://www.visugpx.com">
  <metadata>
    <name>Gardiole (Montpellier)</name>
    <desc><![CDATA[Faite 1/5/2014]]></desc>
  </metadata>
  <trk>
    <name><![CDATA[Gardiole (Montpellier)]]></name>
    <trkseg>
      <trkpt lat="43.4873" lon="3.72688">
        <ele>157.69</ele>
        <time>2014-05-01T10:29:21Z</time>
      </trkpt>
      <trkpt lat="43.4873" lon="3.72688">
        <ele>157.69</ele>
        <time>2014-05-01T10:29:22Z</time>
      </trkpt>
      <trkpt lat="43.48728" lon="3.72693">
        <ele>157.51</ele>
        <time>2014-05-01T10:29:30Z</time>
      </trkpt>
      <trkpt lat="43.48731" lon="3.7271">
        <ele>156.25</ele>
        <time>2014-05-01T10:29:42Z</time>
      </trkpt>
      <trkpt lat="43.48742" lon="3.72724">
        <ele>154.58</ele>
        <time>2014-05-01T10:29:57Z</time>
      </trkpt>
      <trkpt lat="43.48757" lon="3.72742">
        <ele>153.72</ele>
        <time>2014-05-01T10:30:12Z</time>
      </trkpt>
      <trkpt lat="43.48766" lon="3.72765">
        <ele>152.76</ele>
        <time>2014-05-01T10:30:28Z</time>
      </trkpt>
      <trkpt lat="43.48766" lon="3.72767">
        <ele>152.79</ele>
        <time>2014-05-01T10:30:29Z</time>
      </trkpt>
      <trkpt lat="43.48767" lon="3.72771">
        <ele>152.91</ele>
        <time>2014-05-01T10:30:32Z</time>
      </trkpt>
      <trkpt lat="43.48765" lon="3.72775">
        <ele>152.38</ele>
        <time>2014-05-01T10:30:45Z</time>
      </trkpt>
      <trkpt lat="43.48766" lon="3.72774">
        <ele>153.01</ele>
        <time>2014-05-01T10:31:25Z</time>
      </trkpt>
      <trkpt lat="43.48766" lon="3.72777">
        <ele>152.96</ele>
        <time>2014-05-01T10:31:53Z</time>
      </trkpt>
      <trkpt lat="43.48766" lon="3.72785">
        <ele>153.1</ele>
        <time>2014-05-01T10:31:57Z</time>
      </trkpt>
      <trkpt lat="43.48756" lon="3.72808">
        <ele>152.59</ele>
        <time>2014-05-01T10:32:15Z</time>
      </trkpt>
      <trkpt lat="43.48753" lon="3.72817">
        <ele>153.01</ele>
        <time>2014-05-01T10:32:30Z</time>
      </trkpt>
      <trkpt lat="43.48744" lon="3.72834">
        <ele>153.76</ele>
        <time>2014-05-01T10:32:49Z</time>
      </trkpt>
      <trkpt lat="43.48739" lon="3.72843">
        <ele>154.7</ele>
        <time>2014-05-01T10:32:58Z</time>
      </trkpt>
      <trkpt lat="43.48739" lon="3.72867">
        <ele>155.67</ele>
        <time>2014-05-01T10:33:17Z</time>
      </trkpt>
      <trkpt lat="43.4874" lon="3.72868">
        <ele>155.7</ele>
        <time>2014-05-01T10:33:18Z</time>
      </trkpt>
      <trkpt lat="43.48747" lon="3.72874">
        <ele>156.52</ele>
        <time>2014-05-01T10:33:28Z</time>
      </trkpt>
      <trkpt lat="43.4877" lon="3.72879">
        <ele>158.51</ele>
        <time>2014-05-01T10:33:46Z</time>
      </trkpt>
      <trkpt lat="43.48783" lon="3.72884">
        <ele>159.48</ele>
        <time>2014-05-01T10:33:57Z</time>
      </trkpt>
      <trkpt lat="43.48789" lon="3.72892">
        <ele>160.98</ele>
        <time>2014-05-01T10:34:12Z</time>
      </trkpt>
      <trkpt lat="43.48791" lon="3.72894">
        <ele>161.78</ele>
        <time>2014-05-01T10:34:46Z</time>
      </trkpt>
      <trkpt lat="43.48794" lon="3.72896">
        <ele>161.72</ele>
        <time>2014-05-01T10:34:49Z</time>
      </trkpt>
      <trkpt lat="43.48802" lon="3.72909">
        <ele>161.85</ele>
        <time>2014-05-01T10:35:00Z</time>
      </trkpt>
      <trkpt lat="43.48806" lon="3.72925">
        <ele>162.71</ele>
        <time>2014-05-01T10:35:10Z</time>
      </trkpt>
      <trkpt lat="43.48808" lon="3.72952">
        <ele>164.44</ele>
        <time>2014-05-01T10:35:26Z</time>
      </trkpt>
      <trkpt lat="43.48811" lon="3.72962">
        <ele>164.73</ele>
        <time>2014-05-01T10:35:32Z</time>
      </trkpt>
      <trkpt lat="43.48813" lon="3.72974">
        <ele>165.48</ele>
        <time>2014-05-01T10:35:39Z</time>
      </trkpt>
      <trkpt lat="43.48814" lon="3.72983">
        <ele>166.03</ele>
        <time>2014-05-01T10:35:44Z</time>
      </trkpt>
      <trkpt lat="43.48817" lon="3.73001">
        <ele>167.78</ele>
        <time>2014-05-01T10:35:56Z</time>
      </trkpt>
      <trkpt lat="43.48817" lon="3.73017">
        <ele>169.02</ele>
        <time>2014-05-01T10:36:06Z</time>
      </trkpt>
      <trkpt lat="43.48828" lon="3.73038">
        <ele>171</ele>
        <time>2014-05-01T10:36:23Z</time>
      </trkpt>
      <trkpt lat="43.48829" lon="3.73038">
        <ele>171.01</ele>
        <time>2014-05-01T10:36:24Z</time>
      </trkpt>
      <trkpt lat="43.48844" lon="3.73037">
        <ele>172.46</ele>
        <time>2014-05-01T10:36:42Z</time>
      </trkpt>
      <trkpt lat="43.48846" lon="3.73036">
        <ele>171.74</ele>
        <time>2014-05-01T10:37:22Z</time>
      </trkpt>
      <trkpt lat="43.48848" lon="3.73032">
        <ele>172.12</ele>
        <time>2014-05-01T10:37:59Z</time>
      </trkpt>
      <trkpt lat="43.48855" lon="3.73025">
        <ele>172.02</ele>
        <time>2014-05-01T10:38:06Z</time>
      </trkpt>
      <trkpt lat="43.48877" lon="3.73019">
        <ele>174.07</ele>
        <time>2014-05-01T10:38:26Z</time>
      </trkpt>
      <trkpt lat="43.48888" lon="3.73018">
        <ele>175.19</ele>
        <time>2014-05-01T10:38:40Z</time>
      </trkpt>
      <trkpt lat="43.48889" lon="3.73019">
        <ele>176.86</ele>
        <time>2014-05-01T10:39:10Z</time>
      </trkpt>
      <trkpt lat="43.48892" lon="3.73019">
        <ele>176.61</ele>
        <time>2014-05-01T10:39:13Z</time>
      </trkpt>
      <trkpt lat="43.48904" lon="3.73025">
        <ele>176.26</ele>
        <time>2014-05-01T10:39:24Z</time>
      </trkpt>
      <trkpt lat="43.48908" lon="3.73031">
        <ele>176.5</ele>
        <time>2014-05-01T10:39:29Z</time>
      </trkpt>
      <trkpt lat="43.48925" lon="3.73048">
        <ele>178.72</ele>
        <time>2014-05-01T10:39:46Z</time>
      </trkpt>
      <trkpt lat="43.48939" lon="3.73064">
        <ele>180.71</ele>
        <time>2014-05-01T10:40:02Z</time>
      </trkpt>
      <trkpt lat="43.48954" lon="3.7308">
        <ele>183.52</ele>
        <time>2014-05-01T10:40:19Z</time>
      </trkpt>
      <trkpt lat="43.48968" lon="3.73096">
        <ele>185.23</ele>
        <time>2014-05-01T10:40:34Z</time>
      </trkpt>
      <trkpt lat="43.48978" lon="3.73117">
        <ele>188.14</ele>
        <time>2014-05-01T10:40:51Z</time>
      </trkpt>
      <trkpt lat="43.48979" lon="3.73122">
        <ele>188.84</ele>
        <time>2014-05-01T10:40:57Z</time>
      </trkpt>
      <trkpt lat="43.48981" lon="3.73129">
        <ele>189.5</ele>
        <time>2014-05-01T10:41:02Z</time>
      </trkpt>
      <trkpt lat="43.48982" lon="3.73135">
        <ele>189.78</ele>
        <time>2014-05-01T10:41:06Z</time>
      </trkpt>
      <trkpt lat="43.48981" lon="3.7314">
        <ele>189.98</ele>
        <time>2014-05-01T10:41:10Z</time>
      </trkpt>
      <trkpt lat="43.48984" lon="3.73166">
        <ele>190.95</ele>
        <time>2014-05-01T10:41:26Z</time>
      </trkpt>
      <trkpt lat="43.48985" lon="3.73191">
        <ele>194.12</ele>
        <time>2014-05-01T10:41:41Z</time>
      </trkpt>
      <trkpt lat="43.48983" lon="3.73213">
        <ele>196.88</ele>
        <time>2014-05-01T10:41:56Z</time>
      </trkpt>
      <trkpt lat="43.48982" lon="3.73215">
        <ele>198.35</ele>
        <time>2014-05-01T10:42:12Z</time>
      </trkpt>
      <trkpt lat="43.48981" lon="3.73217">
        <ele>198.64</ele>
        <time>2014-05-01T10:42:16Z</time>
      </trkpt>
      <trkpt lat="43.48978" lon="3.73232">
        <ele>196.81</ele>
        <time>2014-05-01T10:42:33Z</time>
      </trkpt>
      <trkpt lat="43.48977" lon="3.73232">
        <ele>195.17</ele>
        <time>2014-05-01T10:42:53Z</time>
      </trkpt>
      <trkpt lat="43.48977" lon="3.73232">
        <ele>194.43</ele>
        <time>2014-05-01T10:43:30Z</time>
      </trkpt>
      <trkpt lat="43.48975" lon="3.7323">
        <ele>195.06</ele>
        <time>2014-05-01T10:43:55Z</time>
      </trkpt>
      <trkpt lat="43.48967" lon="3.73229">
        <ele>197.19</ele>
        <time>2014-05-01T10:44:08Z</time>
      </trkpt>
      <trkpt lat="43.48948" lon="3.73224">
        <ele>198.06</ele>
        <time>2014-05-01T10:44:25Z</time>
      </trkpt>
      <trkpt lat="43.48946" lon="3.73222">
        <ele>197.1</ele>
        <time>2014-05-01T10:44:50Z</time>
      </trkpt>
      <trkpt lat="43.48944" lon="3.73221">
        <ele>197.24</ele>
        <time>2014-05-01T10:44:52Z</time>
      </trkpt>
      <trkpt lat="43.48942" lon="3.7322">
        <ele>197.39</ele>
        <time>2014-05-01T10:44:54Z</time>
      </trkpt>
      <trkpt lat="43.48929" lon="3.73213">
        <ele>197.94</ele>
        <time>2014-05-01T10:45:11Z</time>
      </trkpt>
      <trkpt lat="43.48929" lon="3.73212">
        <ele>198.02</ele>
        <time>2014-05-01T10:45:12Z</time>
      </trkpt>
      <trkpt lat="43.48923" lon="3.73209">
        <ele>198.26</ele>
        <time>2014-05-01T10:45:18Z</time>
      </trkpt>
      <trkpt lat="43.48904" lon="3.732">
        <ele>199.49</ele>
        <time>2014-05-01T10:45:36Z</time>
      </trkpt>
      <trkpt lat="43.48886" lon="3.7319">
        <ele>200.97</ele>
        <time>2014-05-01T10:45:53Z</time>
      </trkpt>
      <trkpt lat="43.48869" lon="3.73181">
        <ele>201.58</ele>
        <time>2014-05-01T10:46:09Z</time>
      </trkpt>
      <trkpt lat="43.48868" lon="3.73182">
        <ele>202.35</ele>
        <time>2014-05-01T10:46:24Z</time>
      </trkpt>
      <trkpt lat="43.48866" lon="3.73182">
        <ele>202.33</ele>
        <time>2014-05-01T10:46:30Z</time>
      </trkpt>
      <trkpt lat="43.48851" lon="3.73177">
        <ele>203.77</ele>
        <time>2014-05-01T10:46:45Z</time>
      </trkpt>
      <trkpt lat="43.48843" lon="3.73173">
        <ele>204.37</ele>
        <time>2014-05-01T10:46:56Z</time>
      </trkpt>
      <trkpt lat="43.48836" lon="3.7317">
        <ele>205.62</ele>
        <time>2014-05-01T10:47:15Z</time>
      </trkpt>
      <trkpt lat="43.48835" lon="3.73173">
        <ele>205.7</ele>
        <time>2014-05-01T10:47:49Z</time>
      </trkpt>
      <trkpt lat="43.48837" lon="3.73172">
        <ele>206.1</ele>
        <time>2014-05-01T10:48:17Z</time>
      </trkpt>
      <trkpt lat="43.48843" lon="3.73174">
        <ele>205.6</ele>
        <time>2014-05-01T10:48:24Z</time>
      </trkpt>
      <trkpt lat="43.48866" lon="3.73184">
        <ele>203.82</ele>
        <time>2014-05-01T10:48:45Z</time>
      </trkpt>
      <trkpt lat="43.48887" lon="3.73192">
        <ele>202.04</ele>
        <time>2014-05-01T10:49:05Z</time>
      </trkpt>
      <trkpt lat="43.48899" lon="3.73198">
        <ele>201.35</ele>
        <time>2014-05-01T10:49:15Z</time>
      </trkpt>
      <trkpt lat="43.48903" lon="3.732">
        <ele>201.02</ele>
        <time>2014-05-01T10:49:19Z</time>
      </trkpt>
      <trkpt lat="43.4891" lon="3.73204">
        <ele>200.83</ele>
        <time>2014-05-01T10:49:26Z</time>
      </trkpt>
      <trkpt lat="43.48928" lon="3.73218">
        <ele>198.83</ele>
        <time>2014-05-01T10:49:44Z</time>
      </trkpt>
      <trkpt lat="43.48931" lon="3.7322">
        <ele>198.69</ele>
        <time>2014-05-01T10:49:47Z</time>
      </trkpt>
      <trkpt lat="43.4894" lon="3.73228">
        <ele>197.4</ele>
        <time>2014-05-01T10:50:03Z</time>
      </trkpt>
      <trkpt lat="43.4895" lon="3.73237">
        <ele>195.1</ele>
        <time>2014-05-01T10:50:20Z</time>
      </trkpt>
      <trkpt lat="43.48961" lon="3.73247">
        <ele>192.95</ele>
        <time>2014-05-01T10:50:37Z</time>
      </trkpt>
      <trkpt lat="43.48964" lon="3.73251">
        <ele>192.52</ele>
        <time>2014-05-01T10:50:50Z</time>
      </trkpt>
      <trkpt lat="43.48966" lon="3.73252">
        <ele>192.3</ele>
        <time>2014-05-01T10:50:52Z</time>
      </trkpt>
      <trkpt lat="43.48979" lon="3.73263">
        <ele>190.74</ele>
        <time>2014-05-01T10:51:08Z</time>
      </trkpt>
      <trkpt lat="43.48986" lon="3.73269">
        <ele>189.35</ele>
        <time>2014-05-01T10:51:17Z</time>
      </trkpt>
      <trkpt lat="43.48997" lon="3.73276">
        <ele>187.73</ele>
        <time>2014-05-01T10:51:29Z</time>
      </trkpt>
      <trkpt lat="43.49009" lon="3.7329">
        <ele>185.87</ele>
        <time>2014-05-01T10:51:48Z</time>
      </trkpt>
      <trkpt lat="43.49014" lon="3.73306">
        <ele>184.8</ele>
        <time>2014-05-01T10:52:05Z</time>
      </trkpt>
      <trkpt lat="43.4902" lon="3.73323">
        <ele>182.01</ele>
        <time>2014-05-01T10:52:20Z</time>
      </trkpt>
      <trkpt lat="43.49031" lon="3.73335">
        <ele>179.13</ele>
        <time>2014-05-01T10:52:38Z</time>
      </trkpt>
      <trkpt lat="43.4904" lon="3.7334">
        <ele>178.06</ele>
        <time>2014-05-01T10:52:49Z</time>
      </trkpt>
      <trkpt lat="43.49053" lon="3.73339">
        <ele>176.21</ele>
        <time>2014-05-01T10:53:04Z</time>
      </trkpt>
      <trkpt lat="43.49056" lon="3.73337">
        <ele>176.03</ele>
        <time>2014-05-01T10:53:07Z</time>
      </trkpt>
      <trkpt lat="43.49059" lon="3.73335">
        <ele>175.65</ele>
        <time>2014-05-01T10:53:11Z</time>
      </trkpt>
      <trkpt lat="43.49066" lon="3.73315">
        <ele>173.22</ele>
        <time>2014-05-01T10:53:29Z</time>
      </trkpt>
      <trkpt lat="43.49065" lon="3.73295">
        <ele>172.04</ele>
        <time>2014-05-01T10:53:45Z</time>
      </trkpt>
      <trkpt lat="43.49064" lon="3.73278">
        <ele>168.98</ele>
        <time>2014-05-01T10:54:00Z</time>
      </trkpt>
      <trkpt lat="43.49063" lon="3.73273">
        <ele>168.68</ele>
        <time>2014-05-01T10:54:04Z</time>
      </trkpt>
      <trkpt lat="43.49064" lon="3.73255">
        <ele>165.55</ele>
        <time>2014-05-01T10:54:20Z</time>
      </trkpt>
      <trkpt lat="43.49069" lon="3.7324">
        <ele>164.27</ele>
        <time>2014-05-01T10:54:35Z</time>
      </trkpt>
      <trkpt lat="43.49078" lon="3.73233">
        <ele>163.32</ele>
        <time>2014-05-01T10:54:51Z</time>
      </trkpt>
      <trkpt lat="43.49083" lon="3.73235">
        <ele>163.29</ele>
        <time>2014-05-01T10:55:01Z</time>
      </trkpt>
      <trkpt lat="43.4909" lon="3.73237">
        <ele>161.91</ele>
        <time>2014-05-01T10:55:10Z</time>
      </trkpt>
      <trkpt lat="43.49104" lon="3.73239">
        <ele>159.65</ele>
        <time>2014-05-01T10:55:28Z</time>
      </trkpt>
      <trkpt lat="43.49105" lon="3.73239">
        <ele>159.56</ele>
        <time>2014-05-01T10:55:29Z</time>
      </trkpt>
      <trkpt lat="43.49117" lon="3.73231">
        <ele>157.12</ele>
        <time>2014-05-01T10:55:45Z</time>
      </trkpt>
      <trkpt lat="43.49126" lon="3.73235">
        <ele>155.03</ele>
        <time>2014-05-01T10:56:01Z</time>
      </trkpt>
      <trkpt lat="43.49139" lon="3.73247">
        <ele>153.27</ele>
        <time>2014-05-01T10:56:19Z</time>
      </trkpt>
      <trkpt lat="43.49136" lon="3.73246">
        <ele>152.23</ele>
        <time>2014-05-01T10:56:34Z</time>
      </trkpt>
      <trkpt lat="43.49137" lon="3.73245">
        <ele>152.37</ele>
        <time>2014-05-01T10:57:17Z</time>
      </trkpt>
      <trkpt lat="43.49136" lon="3.73249">
        <ele>152.48</ele>
        <time>2014-05-01T10:57:47Z</time>
      </trkpt>
      <trkpt lat="43.49136" lon="3.7325">
        <ele>152.51</ele>
        <time>2014-05-01T10:57:48Z</time>
      </trkpt>
      <trkpt lat="43.4914" lon="3.73255">
        <ele>152.46</ele>
        <time>2014-05-01T10:57:53Z</time>
      </trkpt>
      <trkpt lat="43.49147" lon="3.73263">
        <ele>151.71</ele>
        <time>2014-05-01T10:58:05Z</time>
      </trkpt>
      <trkpt lat="43.49149" lon="3.73279">
        <ele>150.28</ele>
        <time>2014-05-01T10:58:20Z</time>
      </trkpt>
      <trkpt lat="43.49154" lon="3.73296">
        <ele>149.2</ele>
        <time>2014-05-01T10:58:36Z</time>
      </trkpt>
      <trkpt lat="43.49156" lon="3.73298">
        <ele>147.74</ele>
        <time>2014-05-01T10:58:50Z</time>
      </trkpt>
      <trkpt lat="43.49155" lon="3.73305">
        <ele>147.44</ele>
        <time>2014-05-01T10:59:25Z</time>
      </trkpt>
      <trkpt lat="43.49155" lon="3.73307">
        <ele>147.62</ele>
        <time>2014-05-01T10:59:27Z</time>
      </trkpt>
      <trkpt lat="43.49154" lon="3.73324">
        <ele>147.99</ele>
        <time>2014-05-01T10:59:43Z</time>
      </trkpt>
      <trkpt lat="43.49154" lon="3.73336">
        <ele>145.81</ele>
        <time>2014-05-01T10:59:58Z</time>
      </trkpt>
      <trkpt lat="43.49154" lon="3.73339">
        <ele>145.35</ele>
        <time>2014-05-01T11:00:03Z</time>
      </trkpt>
      <trkpt lat="43.49154" lon="3.73344">
        <ele>145.26</ele>
        <time>2014-05-01T11:00:07Z</time>
      </trkpt>
      <trkpt lat="43.49154" lon="3.73367">
        <ele>143.3</ele>
        <time>2014-05-01T11:00:26Z</time>
      </trkpt>
      <trkpt lat="43.49152" lon="3.73376">
        <ele>141.08</ele>
        <time>2014-05-01T11:00:42Z</time>
      </trkpt>
      <trkpt lat="43.49152" lon="3.7338">
        <ele>140.63</ele>
        <time>2014-05-01T11:00:46Z</time>
      </trkpt>
      <trkpt lat="43.49153" lon="3.73393">
        <ele>138.77</ele>
        <time>2014-05-01T11:00:59Z</time>
      </trkpt>
      <trkpt lat="43.49149" lon="3.73404">
        <ele>137.13</ele>
        <time>2014-05-01T11:01:14Z</time>
      </trkpt>
      <trkpt lat="43.4915" lon="3.73406">
        <ele>135.81</ele>
        <time>2014-05-01T11:01:33Z</time>
      </trkpt>
      <trkpt lat="43.49148" lon="3.73413">
        <ele>136.05</ele>
        <time>2014-05-01T11:02:15Z</time>
      </trkpt>
      <trkpt lat="43.49143" lon="3.73423">
        <ele>134.31</ele>
        <time>2014-05-01T11:02:32Z</time>
      </trkpt>
      <trkpt lat="43.49142" lon="3.73428">
        <ele>134.1</ele>
        <time>2014-05-01T11:02:37Z</time>
      </trkpt>
      <trkpt lat="43.49141" lon="3.73433">
        <ele>133.49</ele>
        <time>2014-05-01T11:02:41Z</time>
      </trkpt>
      <trkpt lat="43.4914" lon="3.73451">
        <ele>130.14</ele>
        <time>2014-05-01T11:02:57Z</time>
      </trkpt>
      <trkpt lat="43.49138" lon="3.73464">
        <ele>127.28</ele>
        <time>2014-05-01T11:03:12Z</time>
      </trkpt>
      <trkpt lat="43.49139" lon="3.7348">
        <ele>124.15</ele>
        <time>2014-05-01T11:03:26Z</time>
      </trkpt>
      <trkpt lat="43.49141" lon="3.73495">
        <ele>121.89</ele>
        <time>2014-05-01T11:03:40Z</time>
      </trkpt>
      <trkpt lat="43.49139" lon="3.73498">
        <ele>121.1</ele>
        <time>2014-05-01T11:03:43Z</time>
      </trkpt>
      <trkpt lat="43.49128" lon="3.73513">
        <ele>119.56</ele>
        <time>2014-05-01T11:03:57Z</time>
      </trkpt>
      <trkpt lat="43.49126" lon="3.73515">
        <ele>119.44</ele>
        <time>2014-05-01T11:03:59Z</time>
      </trkpt>
      <trkpt lat="43.49113" lon="3.73532">
        <ele>118.03</ele>
        <time>2014-05-01T11:04:18Z</time>
      </trkpt>
      <trkpt lat="43.49112" lon="3.73543">
        <ele>116.72</ele>
        <time>2014-05-01T11:04:31Z</time>
      </trkpt>
      <trkpt lat="43.49112" lon="3.73543">
        <ele>116.69</ele>
        <time>2014-05-01T11:04:56Z</time>
      </trkpt>
      <trkpt lat="43.49114" lon="3.73548">
        <ele>115.65</ele>
        <time>2014-05-01T11:05:17Z</time>
      </trkpt>
      <trkpt lat="43.49117" lon="3.73553">
        <ele>115.72</ele>
        <time>2014-05-01T11:05:21Z</time>
      </trkpt>
      <trkpt lat="43.49123" lon="3.73565">
        <ele>115.12</ele>
        <time>2014-05-01T11:05:33Z</time>
      </trkpt>
      <trkpt lat="43.49144" lon="3.73565">
        <ele>114.69</ele>
        <time>2014-05-01T11:05:51Z</time>
      </trkpt>
      <trkpt lat="43.49152" lon="3.73571">
        <ele>117.35</ele>
        <time>2014-05-01T11:06:04Z</time>
      </trkpt>
      <trkpt lat="43.49157" lon="3.73577">
        <ele>120.39</ele>
        <time>2014-05-01T11:06:15Z</time>
      </trkpt>
      <trkpt lat="43.49166" lon="3.73584">
        <ele>122.26</ele>
        <time>2014-05-01T11:06:31Z</time>
      </trkpt>
      <trkpt lat="43.49169" lon="3.73589">
        <ele>125.35</ele>
        <time>2014-05-01T11:06:43Z</time>
      </trkpt>
      <trkpt lat="43.49168" lon="3.73602">
        <ele>127.97</ele>
        <time>2014-05-01T11:07:01Z</time>
      </trkpt>
      <trkpt lat="43.49167" lon="3.73608">
        <ele>131.03</ele>
        <time>2014-05-01T11:07:09Z</time>
      </trkpt>
      <trkpt lat="43.49166" lon="3.7362">
        <ele>133.19</ele>
        <time>2014-05-01T11:07:23Z</time>
      </trkpt>
      <trkpt lat="43.49167" lon="3.73629">
        <ele>136.5</ele>
        <time>2014-05-01T11:07:35Z</time>
      </trkpt>
      <trkpt lat="43.49165" lon="3.73636">
        <ele>139.59</ele>
        <time>2014-05-01T11:07:45Z</time>
      </trkpt>
      <trkpt lat="43.49163" lon="3.73644">
        <ele>142.74</ele>
        <time>2014-05-01T11:07:59Z</time>
      </trkpt>
      <trkpt lat="43.49161" lon="3.73648">
        <ele>145.8</ele>
        <time>2014-05-01T11:08:15Z</time>
      </trkpt>
      <trkpt lat="43.49156" lon="3.73656">
        <ele>148.98</ele>
        <time>2014-05-01T11:08:30Z</time>
      </trkpt>
      <trkpt lat="43.49153" lon="3.73665">
        <ele>152.06</ele>
        <time>2014-05-01T11:08:44Z</time>
      </trkpt>
      <trkpt lat="43.49153" lon="3.7367">
        <ele>155.16</ele>
        <time>2014-05-01T11:08:52Z</time>
      </trkpt>
      <trkpt lat="43.49153" lon="3.73683">
        <ele>158.22</ele>
        <time>2014-05-01T11:09:10Z</time>
      </trkpt>
      <trkpt lat="43.4916" lon="3.73696">
        <ele>161.32</ele>
        <time>2014-05-01T11:09:29Z</time>
      </trkpt>
      <trkpt lat="43.49163" lon="3.73704">
        <ele>164.71</ele>
        <time>2014-05-01T11:09:38Z</time>
      </trkpt>
      <trkpt lat="43.49162" lon="3.73714">
        <ele>166.74</ele>
        <time>2014-05-01T11:09:54Z</time>
      </trkpt>
      <trkpt lat="43.49159" lon="3.73716">
        <ele>168.47</ele>
        <time>2014-05-01T11:10:18Z</time>
      </trkpt>
      <trkpt lat="43.49159" lon="3.73717">
        <ele>167.85</ele>
        <time>2014-05-01T11:10:41Z</time>
      </trkpt>
      <trkpt lat="43.49156" lon="3.73719">
        <ele>168.94</ele>
        <time>2014-05-01T11:11:06Z</time>
      </trkpt>
      <trkpt lat="43.49137" lon="3.73728">
        <ele>166.55</ele>
        <time>2014-05-01T11:11:25Z</time>
      </trkpt>
      <trkpt lat="43.49121" lon="3.73745">
        <ele>165.64</ele>
        <time>2014-05-01T11:11:43Z</time>
      </trkpt>
      <trkpt lat="43.49114" lon="3.7375">
        <ele>165.68</ele>
        <time>2014-05-01T11:11:51Z</time>
      </trkpt>
      <trkpt lat="43.49097" lon="3.73765">
        <ele>164.58</ele>
        <time>2014-05-01T11:12:11Z</time>
      </trkpt>
      <trkpt lat="43.49085" lon="3.7377">
        <ele>164.56</ele>
        <time>2014-05-01T11:12:26Z</time>
      </trkpt>
      <trkpt lat="43.49075" lon="3.73786">
        <ele>163.24</ele>
        <time>2014-05-01T11:12:43Z</time>
      </trkpt>
      <trkpt lat="43.49069" lon="3.73801">
        <ele>162.86</ele>
        <time>2014-05-01T11:12:54Z</time>
      </trkpt>
      <trkpt lat="43.49058" lon="3.73823">
        <ele>162.25</ele>
        <time>2014-05-01T11:13:13Z</time>
      </trkpt>
      <trkpt lat="43.49055" lon="3.73834">
        <ele>161.89</ele>
        <time>2014-05-01T11:13:21Z</time>
      </trkpt>
      <trkpt lat="43.4905" lon="3.73848">
        <ele>161.84</ele>
        <time>2014-05-01T11:13:32Z</time>
      </trkpt>
      <trkpt lat="43.4905" lon="3.73854">
        <ele>161.9</ele>
        <time>2014-05-01T11:13:36Z</time>
      </trkpt>
      <trkpt lat="43.49046" lon="3.73881">
        <ele>162.79</ele>
        <time>2014-05-01T11:13:54Z</time>
      </trkpt>
      <trkpt lat="43.49042" lon="3.73891">
        <ele>163.32</ele>
        <time>2014-05-01T11:14:04Z</time>
      </trkpt>
      <trkpt lat="43.49035" lon="3.73913">
        <ele>165.27</ele>
        <time>2014-05-01T11:14:21Z</time>
      </trkpt>
      <trkpt lat="43.49028" lon="3.73926">
        <ele>166.21</ele>
        <time>2014-05-01T11:14:36Z</time>
      </trkpt>
      <trkpt lat="43.49019" lon="3.73938">
        <ele>167.57</ele>
        <time>2014-05-01T11:14:50Z</time>
      </trkpt>
      <trkpt lat="43.49019" lon="3.73952">
        <ele>168.69</ele>
        <time>2014-05-01T11:14:59Z</time>
      </trkpt>
      <trkpt lat="43.49019" lon="3.73972">
        <ele>169.53</ele>
        <time>2014-05-01T11:15:12Z</time>
      </trkpt>
      <trkpt lat="43.49017" lon="3.73986">
        <ele>171.46</ele>
        <time>2014-05-01T11:15:27Z</time>
      </trkpt>
      <trkpt lat="43.49019" lon="3.73992">
        <ele>173.46</ele>
        <time>2014-05-01T11:15:47Z</time>
      </trkpt>
      <trkpt lat="43.49021" lon="3.73995">
        <ele>173.89</ele>
        <time>2014-05-01T11:16:16Z</time>
      </trkpt>
      <trkpt lat="43.49021" lon="3.73997">
        <ele>173.81</ele>
        <time>2014-05-01T11:17:02Z</time>
      </trkpt>
      <trkpt lat="43.49022" lon="3.74003">
        <ele>173.7</ele>
        <time>2014-05-01T11:17:08Z</time>
      </trkpt>
      <trkpt lat="43.49026" lon="3.74024">
        <ele>174.55</ele>
        <time>2014-05-01T11:17:24Z</time>
      </trkpt>
      <trkpt lat="43.4903" lon="3.74054">
        <ele>175.95</ele>
        <time>2014-05-01T11:17:42Z</time>
      </trkpt>
      <trkpt lat="43.4903" lon="3.7406">
        <ele>176.24</ele>
        <time>2014-05-01T11:17:50Z</time>
      </trkpt>
      <trkpt lat="43.4903" lon="3.74068">
        <ele>176.1</ele>
        <time>2014-05-01T11:17:57Z</time>
      </trkpt>
      <trkpt lat="43.49029" lon="3.74073">
        <ele>176.14</ele>
        <time>2014-05-01T11:18:00Z</time>
      </trkpt>
      <trkpt lat="43.49029" lon="3.74104">
        <ele>176.96</ele>
        <time>2014-05-01T11:18:18Z</time>
      </trkpt>
      <trkpt lat="43.49032" lon="3.74131">
        <ele>176.9</ele>
        <time>2014-05-01T11:18:34Z</time>
      </trkpt>
      <trkpt lat="43.49039" lon="3.74156">
        <ele>178.06</ele>
        <time>2014-05-01T11:18:52Z</time>
      </trkpt>
      <trkpt lat="43.49041" lon="3.74166">
        <ele>179.99</ele>
        <time>2014-05-01T11:19:06Z</time>
      </trkpt>
      <trkpt lat="43.4904" lon="3.74167">
        <ele>180.38</ele>
        <time>2014-05-01T11:19:29Z</time>
      </trkpt>
      <trkpt lat="43.4904" lon="3.74169">
        <ele>180.38</ele>
        <time>2014-05-01T11:19:39Z</time>
      </trkpt>
      <trkpt lat="43.49037" lon="3.74171">
        <ele>180.15</ele>
        <time>2014-05-01T11:19:42Z</time>
      </trkpt>
      <trkpt lat="43.49031" lon="3.74175">
        <ele>180.1</ele>
        <time>2014-05-01T11:19:49Z</time>
      </trkpt>
      <trkpt lat="43.49011" lon="3.74187">
        <ele>181.61</ele>
        <time>2014-05-01T11:20:09Z</time>
      </trkpt>
      <trkpt lat="43.48994" lon="3.74203">
        <ele>183.12</ele>
        <time>2014-05-01T11:20:27Z</time>
      </trkpt>
      <trkpt lat="43.48985" lon="3.74226">
        <ele>183.7</ele>
        <time>2014-05-01T11:20:44Z</time>
      </trkpt>
      <trkpt lat="43.4898" lon="3.74256">
        <ele>186.37</ele>
        <time>2014-05-01T11:21:04Z</time>
      </trkpt>
      <trkpt lat="43.48982" lon="3.7428">
        <ele>187.34</ele>
        <time>2014-05-01T11:21:19Z</time>
      </trkpt>
      <trkpt lat="43.48983" lon="3.7429">
        <ele>188.02</ele>
        <time>2014-05-01T11:21:25Z</time>
      </trkpt>
      <trkpt lat="43.48989" lon="3.743">
        <ele>188.92</ele>
        <time>2014-05-01T11:21:34Z</time>
      </trkpt>
      <trkpt lat="43.49" lon="3.74307">
        <ele>189.42</ele>
        <time>2014-05-01T11:21:52Z</time>
      </trkpt>
      <trkpt lat="43.49007" lon="3.74313">
        <ele>189.28</ele>
        <time>2014-05-01T11:22:05Z</time>
      </trkpt>
      <trkpt lat="43.4901" lon="3.74316">
        <ele>188.79</ele>
        <time>2014-05-01T11:22:17Z</time>
      </trkpt>
      <trkpt lat="43.49015" lon="3.74325">
        <ele>187.79</ele>
        <time>2014-05-01T11:22:24Z</time>
      </trkpt>
      <trkpt lat="43.49014" lon="3.74357">
        <ele>186.48</ele>
        <time>2014-05-01T11:22:43Z</time>
      </trkpt>
      <trkpt lat="43.49015" lon="3.74363">
        <ele>187.18</ele>
        <time>2014-05-01T11:22:49Z</time>
      </trkpt>
      <trkpt lat="43.49023" lon="3.74382">
        <ele>189.25</ele>
        <time>2014-05-01T11:23:04Z</time>
      </trkpt>
      <trkpt lat="43.49026" lon="3.74392">
        <ele>192.26</ele>
        <time>2014-05-01T11:23:16Z</time>
      </trkpt>
      <trkpt lat="43.49023" lon="3.74399">
        <ele>193.1</ele>
        <time>2014-05-01T11:23:31Z</time>
      </trkpt>
      <trkpt lat="43.49021" lon="3.744">
        <ele>193.35</ele>
        <time>2014-05-01T11:23:35Z</time>
      </trkpt>
      <trkpt lat="43.49013" lon="3.74408">
        <ele>192.52</ele>
        <time>2014-05-01T11:23:50Z</time>
      </trkpt>
      <trkpt lat="43.49012" lon="3.74411">
        <ele>192.56</ele>
        <time>2014-05-01T11:23:52Z</time>
      </trkpt>
      <trkpt lat="43.49011" lon="3.74418">
        <ele>192.56</ele>
        <time>2014-05-01T11:23:57Z</time>
      </trkpt>
      <trkpt lat="43.49011" lon="3.74421">
        <ele>192.66</ele>
        <time>2014-05-01T11:23:59Z</time>
      </trkpt>
      <trkpt lat="43.49009" lon="3.74429">
        <ele>193.25</ele>
        <time>2014-05-01T11:24:06Z</time>
      </trkpt>
      <trkpt lat="43.49007" lon="3.74432">
        <ele>193.58</ele>
        <time>2014-05-01T11:24:09Z</time>
      </trkpt>
      <trkpt lat="43.49003" lon="3.74445">
        <ele>194.13</ele>
        <time>2014-05-01T11:24:18Z</time>
      </trkpt>
      <trkpt lat="43.49001" lon="3.74448">
        <ele>194.68</ele>
        <time>2014-05-01T11:24:23Z</time>
      </trkpt>
      <trkpt lat="43.48998" lon="3.7445">
        <ele>195.04</ele>
        <time>2014-05-01T11:24:26Z</time>
      </trkpt>
      <trkpt lat="43.48994" lon="3.74452">
        <ele>195.45</ele>
        <time>2014-05-01T11:24:30Z</time>
      </trkpt>
      <trkpt lat="43.48981" lon="3.74468">
        <ele>196.56</ele>
        <time>2014-05-01T11:24:46Z</time>
      </trkpt>
      <trkpt lat="43.48971" lon="3.74476">
        <ele>199.66</ele>
        <time>2014-05-01T11:25:00Z</time>
      </trkpt>
      <trkpt lat="43.48965" lon="3.74487">
        <ele>202.45</ele>
        <time>2014-05-01T11:25:13Z</time>
      </trkpt>
      <trkpt lat="43.48962" lon="3.74498">
        <ele>203.71</ele>
        <time>2014-05-01T11:25:32Z</time>
      </trkpt>
      <trkpt lat="43.48959" lon="3.74507">
        <ele>207.37</ele>
        <time>2014-05-01T11:25:44Z</time>
      </trkpt>
      <trkpt lat="43.48958" lon="3.74511">
        <ele>210.74</ele>
        <time>2014-05-01T11:25:49Z</time>
      </trkpt>
      <trkpt lat="43.48956" lon="3.74516">
        <ele>214.09</ele>
        <time>2014-05-01T11:25:57Z</time>
      </trkpt>
      <trkpt lat="43.4895" lon="3.74528">
        <ele>215.59</ele>
        <time>2014-05-01T11:26:14Z</time>
      </trkpt>
      <trkpt lat="43.48948" lon="3.74531">
        <ele>216.01</ele>
        <time>2014-05-01T11:26:37Z</time>
      </trkpt>
      <trkpt lat="43.48946" lon="3.74539">
        <ele>215.64</ele>
        <time>2014-05-01T11:27:02Z</time>
      </trkpt>
      <trkpt lat="43.48946" lon="3.74543">
        <ele>215.55</ele>
        <time>2014-05-01T11:27:22Z</time>
      </trkpt>
      <trkpt lat="43.48945" lon="3.74549">
        <ele>215.09</ele>
        <time>2014-05-01T11:27:31Z</time>
      </trkpt>
      <trkpt lat="43.48944" lon="3.74582">
        <ele>215.94</ele>
        <time>2014-05-01T11:27:49Z</time>
      </trkpt>
      <trkpt lat="43.48946" lon="3.74596">
        <ele>216.3</ele>
        <time>2014-05-01T11:27:57Z</time>
      </trkpt>
      <trkpt lat="43.48942" lon="3.74627">
        <ele>215.79</ele>
        <time>2014-05-01T11:28:14Z</time>
      </trkpt>
      <trkpt lat="43.48942" lon="3.74634">
        <ele>215.27</ele>
        <time>2014-05-01T11:28:18Z</time>
      </trkpt>
      <trkpt lat="43.48943" lon="3.74646">
        <ele>214.85</ele>
        <time>2014-05-01T11:28:26Z</time>
      </trkpt>
      <trkpt lat="43.48942" lon="3.74664">
        <ele>214.86</ele>
        <time>2014-05-01T11:28:39Z</time>
      </trkpt>
      <trkpt lat="43.48947" lon="3.74691">
        <ele>214.78</ele>
        <time>2014-05-01T11:29:00Z</time>
      </trkpt>
      <trkpt lat="43.48949" lon="3.74718">
        <ele>215.06</ele>
        <time>2014-05-01T11:29:21Z</time>
      </trkpt>
      <trkpt lat="43.48949" lon="3.74743">
        <ele>214.68</ele>
        <time>2014-05-01T11:29:38Z</time>
      </trkpt>
      <trkpt lat="43.48949" lon="3.74754">
        <ele>214.69</ele>
        <time>2014-05-01T11:29:51Z</time>
      </trkpt>
      <trkpt lat="43.4895" lon="3.74764">
        <ele>214.97</ele>
        <time>2014-05-01T11:30:07Z</time>
      </trkpt>
      <trkpt lat="43.48948" lon="3.74766">
        <ele>215.43</ele>
        <time>2014-05-01T11:30:40Z</time>
      </trkpt>
      <trkpt lat="43.48943" lon="3.74775">
        <ele>215.47</ele>
        <time>2014-05-01T11:31:08Z</time>
      </trkpt>
      <trkpt lat="43.48944" lon="3.74775">
        <ele>214.61</ele>
        <time>2014-05-01T11:31:33Z</time>
      </trkpt>
      <trkpt lat="43.48947" lon="3.7477">
        <ele>214.83</ele>
        <time>2014-05-01T11:31:55Z</time>
      </trkpt>
      <trkpt lat="43.48947" lon="3.74768">
        <ele>215.31</ele>
        <time>2014-05-01T11:32:24Z</time>
      </trkpt>
      <trkpt lat="43.48947" lon="3.74768">
        <ele>215.06</ele>
        <time>2014-05-01T11:33:01Z</time>
      </trkpt>
      <trkpt lat="43.48948" lon="3.74768">
        <ele>214.99</ele>
        <time>2014-05-01T11:33:34Z</time>
      </trkpt>
      <trkpt lat="43.48949" lon="3.74769">
        <ele>215.21</ele>
        <time>2014-05-01T11:34:17Z</time>
      </trkpt>
      <trkpt lat="43.4895" lon="3.74766">
        <ele>215.2</ele>
        <time>2014-05-01T11:35:02Z</time>
      </trkpt>
      <trkpt lat="43.48949" lon="3.74768">
        <ele>215.3</ele>
        <time>2014-05-01T11:35:37Z</time>
      </trkpt>
      <trkpt lat="43.48948" lon="3.7477">
        <ele>215.62</ele>
        <time>2014-05-01T11:36:04Z</time>
      </trkpt>
      <trkpt lat="43.48947" lon="3.74771">
        <ele>216</ele>
        <time>2014-05-01T11:36:36Z</time>
      </trkpt>
      <trkpt lat="43.48945" lon="3.74771">
        <ele>215.9</ele>
        <time>2014-05-01T11:37:03Z</time>
      </trkpt>
      <trkpt lat="43.48946" lon="3.7477">
        <ele>216.2</ele>
        <time>2014-05-01T11:37:33Z</time>
      </trkpt>
      <trkpt lat="43.48946" lon="3.74771">
        <ele>215.96</ele>
        <time>2014-05-01T11:38:09Z</time>
      </trkpt>
      <trkpt lat="43.48944" lon="3.74773">
        <ele>215.47</ele>
        <time>2014-05-01T11:38:36Z</time>
      </trkpt>
      <trkpt lat="43.48943" lon="3.7478">
        <ele>215.19</ele>
        <time>2014-05-01T11:38:49Z</time>
      </trkpt>
      <trkpt lat="43.48945" lon="3.74802">
        <ele>215.54</ele>
        <time>2014-05-01T11:39:04Z</time>
      </trkpt>
      <trkpt lat="43.48948" lon="3.74811">
        <ele>215.79</ele>
        <time>2014-05-01T11:39:11Z</time>
      </trkpt>
      <trkpt lat="43.48953" lon="3.74826">
        <ele>215.32</ele>
        <time>2014-05-01T11:39:24Z</time>
      </trkpt>
      <trkpt lat="43.48947" lon="3.7485">
        <ele>215.15</ele>
        <time>2014-05-01T11:39:44Z</time>
      </trkpt>
      <trkpt lat="43.48941" lon="3.74862">
        <ele>214.8</ele>
        <time>2014-05-01T11:39:54Z</time>
      </trkpt>
      <trkpt lat="43.48937" lon="3.74893">
        <ele>213.38</ele>
        <time>2014-05-01T11:40:13Z</time>
      </trkpt>
      <trkpt lat="43.48953" lon="3.74923">
        <ele>213.29</ele>
        <time>2014-05-01T11:40:34Z</time>
      </trkpt>
      <trkpt lat="43.4896" lon="3.74948">
        <ele>213.52</ele>
        <time>2014-05-01T11:40:51Z</time>
      </trkpt>
      <trkpt lat="43.48964" lon="3.74957">
        <ele>213.31</ele>
        <time>2014-05-01T11:40:58Z</time>
      </trkpt>
      <trkpt lat="43.48966" lon="3.74963">
        <ele>213.28</ele>
        <time>2014-05-01T11:41:02Z</time>
      </trkpt>
      <trkpt lat="43.48962" lon="3.74979">
        <ele>212.2</ele>
        <time>2014-05-01T11:41:18Z</time>
      </trkpt>
      <trkpt lat="43.48961" lon="3.7498">
        <ele>211.89</ele>
        <time>2014-05-01T11:41:39Z</time>
      </trkpt>
      <trkpt lat="43.4896" lon="3.74981">
        <ele>211.86</ele>
        <time>2014-05-01T11:41:58Z</time>
      </trkpt>
      <trkpt lat="43.48963" lon="3.74978">
        <ele>212.31</ele>
        <time>2014-05-01T11:42:23Z</time>
      </trkpt>
      <trkpt lat="43.48966" lon="3.74964">
        <ele>212.66</ele>
        <time>2014-05-01T11:42:38Z</time>
      </trkpt>
      <trkpt lat="43.48958" lon="3.74944">
        <ele>213.02</ele>
        <time>2014-05-01T11:42:56Z</time>
      </trkpt>
      <trkpt lat="43.48954" lon="3.74928">
        <ele>212.97</ele>
        <time>2014-05-01T11:43:09Z</time>
      </trkpt>
      <trkpt lat="43.48938" lon="3.74904">
        <ele>214.14</ele>
        <time>2014-05-01T11:43:27Z</time>
      </trkpt>
      <trkpt lat="43.48936" lon="3.74896">
        <ele>214.05</ele>
        <time>2014-05-01T11:43:33Z</time>
      </trkpt>
      <trkpt lat="43.4894" lon="3.74868">
        <ele>214.51</ele>
        <time>2014-05-01T11:43:52Z</time>
      </trkpt>
      <trkpt lat="43.48952" lon="3.74845">
        <ele>215.23</ele>
        <time>2014-05-01T11:44:10Z</time>
      </trkpt>
      <trkpt lat="43.48951" lon="3.7482">
        <ele>215.71</ele>
        <time>2014-05-01T11:44:27Z</time>
      </trkpt>
      <trkpt lat="43.48945" lon="3.74793">
        <ele>215.18</ele>
        <time>2014-05-01T11:44:47Z</time>
      </trkpt>
      <trkpt lat="43.48946" lon="3.74789">
        <ele>215.23</ele>
        <time>2014-05-01T11:44:49Z</time>
      </trkpt>
      <trkpt lat="43.48949" lon="3.74785">
        <ele>215.23</ele>
        <time>2014-05-01T11:44:52Z</time>
      </trkpt>
      <trkpt lat="43.48968" lon="3.74777">
        <ele>215.1</ele>
        <time>2014-05-01T11:45:09Z</time>
      </trkpt>
      <trkpt lat="43.48989" lon="3.74778">
        <ele>216.29</ele>
        <time>2014-05-01T11:45:26Z</time>
      </trkpt>
      <trkpt lat="43.49009" lon="3.74776">
        <ele>217.02</ele>
        <time>2014-05-01T11:45:42Z</time>
      </trkpt>
      <trkpt lat="43.49032" lon="3.74777">
        <ele>217.69</ele>
        <time>2014-05-01T11:46:01Z</time>
      </trkpt>
      <trkpt lat="43.49053" lon="3.74774">
        <ele>217.56</ele>
        <time>2014-05-01T11:46:20Z</time>
      </trkpt>
      <trkpt lat="43.49056" lon="3.74774">
        <ele>217.22</ele>
        <time>2014-05-01T11:46:25Z</time>
      </trkpt>
      <trkpt lat="43.49059" lon="3.74774">
        <ele>217.25</ele>
        <time>2014-05-01T11:46:28Z</time>
      </trkpt>
      <trkpt lat="43.49065" lon="3.74768">
        <ele>220.23</ele>
        <time>2014-05-01T11:46:48Z</time>
      </trkpt>
      <trkpt lat="43.49067" lon="3.74768">
        <ele>219.82</ele>
        <time>2014-05-01T11:47:29Z</time>
      </trkpt>
      <trkpt lat="43.49079" lon="3.74775">
        <ele>220.25</ele>
        <time>2014-05-01T11:47:42Z</time>
      </trkpt>
      <trkpt lat="43.49084" lon="3.74777">
        <ele>220.33</ele>
        <time>2014-05-01T11:47:46Z</time>
      </trkpt>
      <trkpt lat="43.49106" lon="3.74786">
        <ele>220.05</ele>
        <time>2014-05-01T11:48:05Z</time>
      </trkpt>
      <trkpt lat="43.49129" lon="3.74796">
        <ele>220.19</ele>
        <time>2014-05-01T11:48:25Z</time>
      </trkpt>
      <trkpt lat="43.49151" lon="3.74807">
        <ele>220.02</ele>
        <time>2014-05-01T11:48:44Z</time>
      </trkpt>
      <trkpt lat="43.49171" lon="3.74816">
        <ele>220.58</ele>
        <time>2014-05-01T11:49:01Z</time>
      </trkpt>
      <trkpt lat="43.49191" lon="3.74825">
        <ele>221.61</ele>
        <time>2014-05-01T11:49:18Z</time>
      </trkpt>
      <trkpt lat="43.49212" lon="3.74837">
        <ele>220.66</ele>
        <time>2014-05-01T11:49:36Z</time>
      </trkpt>
      <trkpt lat="43.49215" lon="3.74839">
        <ele>220.83</ele>
        <time>2014-05-01T11:49:54Z</time>
      </trkpt>
      <trkpt lat="43.49214" lon="3.7484">
        <ele>221.32</ele>
        <time>2014-05-01T11:50:29Z</time>
      </trkpt>
      <trkpt lat="43.49215" lon="3.74841">
        <ele>219.5</ele>
        <time>2014-05-01T11:50:54Z</time>
      </trkpt>
      <trkpt lat="43.49216" lon="3.74843">
        <ele>219.29</ele>
        <time>2014-05-01T11:50:56Z</time>
      </trkpt>
      <trkpt lat="43.49219" lon="3.74843">
        <ele>219.28</ele>
        <time>2014-05-01T11:50:58Z</time>
      </trkpt>
      <trkpt lat="43.49229" lon="3.74848">
        <ele>219.42</ele>
        <time>2014-05-01T11:51:07Z</time>
      </trkpt>
      <trkpt lat="43.49238" lon="3.74853">
        <ele>218.27</ele>
        <time>2014-05-01T11:51:18Z</time>
      </trkpt>
      <trkpt lat="43.49239" lon="3.74839">
        <ele>219.07</ele>
        <time>2014-05-01T11:51:28Z</time>
      </trkpt>
      <trkpt lat="43.4925" lon="3.74811">
        <ele>218.2</ele>
        <time>2014-05-01T11:51:47Z</time>
      </trkpt>
      <trkpt lat="43.49257" lon="3.74787">
        <ele>216.48</ele>
        <time>2014-05-01T11:52:04Z</time>
      </trkpt>
      <trkpt lat="43.4926" lon="3.7477">
        <ele>217.55</ele>
        <time>2014-05-01T11:52:21Z</time>
      </trkpt>
      <trkpt lat="43.49262" lon="3.74757">
        <ele>216.64</ele>
        <time>2014-05-01T11:52:45Z</time>
      </trkpt>
      <trkpt lat="43.49265" lon="3.74743">
        <ele>215.35</ele>
        <time>2014-05-01T11:52:59Z</time>
      </trkpt>
      <trkpt lat="43.49271" lon="3.7474">
        <ele>215.03</ele>
        <time>2014-05-01T11:53:17Z</time>
      </trkpt>
      <trkpt lat="43.49278" lon="3.74738">
        <ele>213.5</ele>
        <time>2014-05-01T11:53:33Z</time>
      </trkpt>
      <trkpt lat="43.49279" lon="3.74738">
        <ele>213.22</ele>
        <time>2014-05-01T11:53:34Z</time>
      </trkpt>
      <trkpt lat="43.49284" lon="3.74737">
        <ele>210.49</ele>
        <time>2014-05-01T11:53:39Z</time>
      </trkpt>
      <trkpt lat="43.49288" lon="3.74737">
        <ele>210.59</ele>
        <time>2014-05-01T11:53:42Z</time>
      </trkpt>
      <trkpt lat="43.49303" lon="3.74734">
        <ele>211.2</ele>
        <time>2014-05-01T11:53:57Z</time>
      </trkpt>
      <trkpt lat="43.4932" lon="3.7473">
        <ele>209.45</ele>
        <time>2014-05-01T11:54:14Z</time>
      </trkpt>
      <trkpt lat="43.49338" lon="3.74729">
        <ele>208.32</ele>
        <time>2014-05-01T11:54:31Z</time>
      </trkpt>
      <trkpt lat="43.49348" lon="3.74728">
        <ele>206.29</ele>
        <time>2014-05-01T11:54:41Z</time>
      </trkpt>
      <trkpt lat="43.49349" lon="3.74728">
        <ele>206.03</ele>
        <time>2014-05-01T11:54:42Z</time>
      </trkpt>
      <trkpt lat="43.49354" lon="3.74729">
        <ele>205.1</ele>
        <time>2014-05-01T11:54:47Z</time>
      </trkpt>
      <trkpt lat="43.49371" lon="3.74736">
        <ele>204.99</ele>
        <time>2014-05-01T11:55:05Z</time>
      </trkpt>
      <trkpt lat="43.4939" lon="3.74746">
        <ele>202.53</ele>
        <time>2014-05-01T11:55:25Z</time>
      </trkpt>
      <trkpt lat="43.49395" lon="3.74751">
        <ele>203.35</ele>
        <time>2014-05-01T11:55:42Z</time>
      </trkpt>
      <trkpt lat="43.49407" lon="3.74765">
        <ele>201.23</ele>
        <time>2014-05-01T11:55:58Z</time>
      </trkpt>
      <trkpt lat="43.49414" lon="3.74776">
        <ele>199.83</ele>
        <time>2014-05-01T11:56:11Z</time>
      </trkpt>
      <trkpt lat="43.49423" lon="3.74801">
        <ele>198.75</ele>
        <time>2014-05-01T11:56:30Z</time>
      </trkpt>
      <trkpt lat="43.49427" lon="3.74811">
        <ele>198.34</ele>
        <time>2014-05-01T11:56:37Z</time>
      </trkpt>
      <trkpt lat="43.49434" lon="3.74816">
        <ele>198.76</ele>
        <time>2014-05-01T11:56:54Z</time>
      </trkpt>
      <trkpt lat="43.49447" lon="3.7482">
        <ele>197.68</ele>
        <time>2014-05-01T11:57:14Z</time>
      </trkpt>
      <trkpt lat="43.49463" lon="3.74825">
        <ele>194.48</ele>
        <time>2014-05-01T11:57:28Z</time>
      </trkpt>
      <trkpt lat="43.49468" lon="3.74826">
        <ele>192.97</ele>
        <time>2014-05-01T11:57:33Z</time>
      </trkpt>
      <trkpt lat="43.49484" lon="3.74833">
        <ele>193.39</ele>
        <time>2014-05-01T11:57:50Z</time>
      </trkpt>
      <trkpt lat="43.495" lon="3.74841">
        <ele>191.36</ele>
        <time>2014-05-01T11:58:05Z</time>
      </trkpt>
      <trkpt lat="43.49516" lon="3.74846">
        <ele>189.17</ele>
        <time>2014-05-01T11:58:20Z</time>
      </trkpt>
      <trkpt lat="43.49519" lon="3.74846">
        <ele>188.81</ele>
        <time>2014-05-01T11:58:23Z</time>
      </trkpt>
      <trkpt lat="43.49538" lon="3.7485">
        <ele>188.41</ele>
        <time>2014-05-01T11:58:41Z</time>
      </trkpt>
      <trkpt lat="43.49555" lon="3.74854">
        <ele>191.12</ele>
        <time>2014-05-01T11:58:57Z</time>
      </trkpt>
      <trkpt lat="43.49567" lon="3.74859">
        <ele>192.23</ele>
        <time>2014-05-01T11:59:12Z</time>
      </trkpt>
      <trkpt lat="43.49581" lon="3.74867">
        <ele>193.4</ele>
        <time>2014-05-01T11:59:28Z</time>
      </trkpt>
      <trkpt lat="43.4959" lon="3.74873">
        <ele>193.93</ele>
        <time>2014-05-01T11:59:45Z</time>
      </trkpt>
      <trkpt lat="43.49594" lon="3.74877">
        <ele>194.05</ele>
        <time>2014-05-01T11:59:52Z</time>
      </trkpt>
      <trkpt lat="43.49597" lon="3.7488">
        <ele>194.44</ele>
        <time>2014-05-01T11:59:56Z</time>
      </trkpt>
      <trkpt lat="43.49606" lon="3.74889">
        <ele>194.3</ele>
        <time>2014-05-01T12:00:08Z</time>
      </trkpt>
      <trkpt lat="43.49612" lon="3.7491">
        <ele>195.17</ele>
        <time>2014-05-01T12:00:25Z</time>
      </trkpt>
      <trkpt lat="43.49611" lon="3.74929">
        <ele>197.16</ele>
        <time>2014-05-01T12:00:40Z</time>
      </trkpt>
      <trkpt lat="43.49612" lon="3.74941">
        <ele>198.08</ele>
        <time>2014-05-01T12:00:48Z</time>
      </trkpt>
      <trkpt lat="43.49604" lon="3.74956">
        <ele>201.01</ele>
        <time>2014-05-01T12:01:04Z</time>
      </trkpt>
      <trkpt lat="43.496" lon="3.74963">
        <ele>202.59</ele>
        <time>2014-05-01T12:01:12Z</time>
      </trkpt>
      <trkpt lat="43.49596" lon="3.74977">
        <ele>204.55</ele>
        <time>2014-05-01T12:01:22Z</time>
      </trkpt>
      <trkpt lat="43.4959" lon="3.74996">
        <ele>207.4</ele>
        <time>2014-05-01T12:01:39Z</time>
      </trkpt>
      <trkpt lat="43.49585" lon="3.75011">
        <ele>210.07</ele>
        <time>2014-05-01T12:01:54Z</time>
      </trkpt>
      <trkpt lat="43.49585" lon="3.75014">
        <ele>210.23</ele>
        <time>2014-05-01T12:01:56Z</time>
      </trkpt>
      <trkpt lat="43.49578" lon="3.75029">
        <ele>213.16</ele>
        <time>2014-05-01T12:02:12Z</time>
      </trkpt>
      <trkpt lat="43.49575" lon="3.75038">
        <ele>216.28</ele>
        <time>2014-05-01T12:02:21Z</time>
      </trkpt>
      <trkpt lat="43.49568" lon="3.75049">
        <ele>219.51</ele>
        <time>2014-05-01T12:02:34Z</time>
      </trkpt>
      <trkpt lat="43.49568" lon="3.75051">
        <ele>220.75</ele>
        <time>2014-05-01T12:02:37Z</time>
      </trkpt>
      <trkpt lat="43.49565" lon="3.75061">
        <ele>223.82</ele>
        <time>2014-05-01T12:02:47Z</time>
      </trkpt>
      <trkpt lat="43.49564" lon="3.75062">
        <ele>223.89</ele>
        <time>2014-05-01T12:02:48Z</time>
      </trkpt>
      <trkpt lat="43.49552" lon="3.75076">
        <ele>225.28</ele>
        <time>2014-05-01T12:03:09Z</time>
      </trkpt>
      <trkpt lat="43.49551" lon="3.75077">
        <ele>225.29</ele>
        <time>2014-05-01T12:03:10Z</time>
      </trkpt>
      <trkpt lat="43.49547" lon="3.75082">
        <ele>225.11</ele>
        <time>2014-05-01T12:03:16Z</time>
      </trkpt>
      <trkpt lat="43.49537" lon="3.75092">
        <ele>224.98</ele>
        <time>2014-05-01T12:03:29Z</time>
      </trkpt>
      <trkpt lat="43.49536" lon="3.75093">
        <ele>224.96</ele>
        <time>2014-05-01T12:03:30Z</time>
      </trkpt>
      <trkpt lat="43.49532" lon="3.75119">
        <ele>224.43</ele>
        <time>2014-05-01T12:03:48Z</time>
      </trkpt>
      <trkpt lat="43.49532" lon="3.75128">
        <ele>224.18</ele>
        <time>2014-05-01T12:03:54Z</time>
      </trkpt>
      <trkpt lat="43.49528" lon="3.75138">
        <ele>223.31</ele>
        <time>2014-05-01T12:04:11Z</time>
      </trkpt>
      <trkpt lat="43.49524" lon="3.75149">
        <ele>222.81</ele>
        <time>2014-05-01T12:04:25Z</time>
      </trkpt>
      <trkpt lat="43.49518" lon="3.75166">
        <ele>222.21</ele>
        <time>2014-05-01T12:04:40Z</time>
      </trkpt>
      <trkpt lat="43.4952" lon="3.75175">
        <ele>221.75</ele>
        <time>2014-05-01T12:04:46Z</time>
      </trkpt>
      <trkpt lat="43.49522" lon="3.75188">
        <ele>220.65</ele>
        <time>2014-05-01T12:05:00Z</time>
      </trkpt>
      <trkpt lat="43.49516" lon="3.75197">
        <ele>219.13</ele>
        <time>2014-05-01T12:05:10Z</time>
      </trkpt>
      <trkpt lat="43.49514" lon="3.7521">
        <ele>218.23</ele>
        <time>2014-05-01T12:05:23Z</time>
      </trkpt>
      <trkpt lat="43.49513" lon="3.75219">
        <ele>217.61</ele>
        <time>2014-05-01T12:05:46Z</time>
      </trkpt>
      <trkpt lat="43.49513" lon="3.75221">
        <ele>217.49</ele>
        <time>2014-05-01T12:05:47Z</time>
      </trkpt>
      <trkpt lat="43.49511" lon="3.75225">
        <ele>217.06</ele>
        <time>2014-05-01T12:05:51Z</time>
      </trkpt>
      <trkpt lat="43.49508" lon="3.75232">
        <ele>216.08</ele>
        <time>2014-05-01T12:06:06Z</time>
      </trkpt>
      <trkpt lat="43.49508" lon="3.75232">
        <ele>215.45</ele>
        <time>2014-05-01T12:06:27Z</time>
      </trkpt>
      <trkpt lat="43.49507" lon="3.75231">
        <ele>214.94</ele>
        <time>2014-05-01T12:07:08Z</time>
      </trkpt>
      <trkpt lat="43.49502" lon="3.75239">
        <ele>215.96</ele>
        <time>2014-05-01T12:07:22Z</time>
      </trkpt>
      <trkpt lat="43.49488" lon="3.75249">
        <ele>215.7</ele>
        <time>2014-05-01T12:07:38Z</time>
      </trkpt>
      <trkpt lat="43.49472" lon="3.75263">
        <ele>215.11</ele>
        <time>2014-05-01T12:07:54Z</time>
      </trkpt>
      <trkpt lat="43.49456" lon="3.75279">
        <ele>214.04</ele>
        <time>2014-05-01T12:08:09Z</time>
      </trkpt>
      <trkpt lat="43.49437" lon="3.75297">
        <ele>213.13</ele>
        <time>2014-05-01T12:08:27Z</time>
      </trkpt>
      <trkpt lat="43.49419" lon="3.75312">
        <ele>212.02</ele>
        <time>2014-05-01T12:08:44Z</time>
      </trkpt>
      <trkpt lat="43.49405" lon="3.75318">
        <ele>211.61</ele>
        <time>2014-05-01T12:08:56Z</time>
      </trkpt>
      <trkpt lat="43.49399" lon="3.75321">
        <ele>211.6</ele>
        <time>2014-05-01T12:09:01Z</time>
      </trkpt>
      <trkpt lat="43.4938" lon="3.75335">
        <ele>210.55</ele>
        <time>2014-05-01T12:09:18Z</time>
      </trkpt>
      <trkpt lat="43.49368" lon="3.7536">
        <ele>209.64</ele>
        <time>2014-05-01T12:09:34Z</time>
      </trkpt>
      <trkpt lat="43.49361" lon="3.7538">
        <ele>209.65</ele>
        <time>2014-05-01T12:09:51Z</time>
      </trkpt>
      <trkpt lat="43.49362" lon="3.75383">
        <ele>210.38</ele>
        <time>2014-05-01T12:10:18Z</time>
      </trkpt>
      <trkpt lat="43.49361" lon="3.7539">
        <ele>210.36</ele>
        <time>2014-05-01T12:10:36Z</time>
      </trkpt>
      <trkpt lat="43.49354" lon="3.75416">
        <ele>210.79</ele>
        <time>2014-05-01T12:10:52Z</time>
      </trkpt>
      <trkpt lat="43.49354" lon="3.75418">
        <ele>210.97</ele>
        <time>2014-05-01T12:10:53Z</time>
      </trkpt>
      <trkpt lat="43.49353" lon="3.75452">
        <ele>212.75</ele>
        <time>2014-05-01T12:11:12Z</time>
      </trkpt>
      <trkpt lat="43.49361" lon="3.7549">
        <ele>215.31</ele>
        <time>2014-05-01T12:11:33Z</time>
      </trkpt>
      <trkpt lat="43.49371" lon="3.75527">
        <ele>214.99</ele>
        <time>2014-05-01T12:11:54Z</time>
      </trkpt>
      <trkpt lat="43.4938" lon="3.75569">
        <ele>214.96</ele>
        <time>2014-05-01T12:12:17Z</time>
      </trkpt>
      <trkpt lat="43.49385" lon="3.75601">
        <ele>215.94</ele>
        <time>2014-05-01T12:12:35Z</time>
      </trkpt>
      <trkpt lat="43.49392" lon="3.75643">
        <ele>217.2</ele>
        <time>2014-05-01T12:12:58Z</time>
      </trkpt>
      <trkpt lat="43.49392" lon="3.75672">
        <ele>218.39</ele>
        <time>2014-05-01T12:13:15Z</time>
      </trkpt>
      <trkpt lat="43.49392" lon="3.7568">
        <ele>218.93</ele>
        <time>2014-05-01T12:13:20Z</time>
      </trkpt>
      <trkpt lat="43.49391" lon="3.75685">
        <ele>219.17</ele>
        <time>2014-05-01T12:13:23Z</time>
      </trkpt>
      <trkpt lat="43.49389" lon="3.75718">
        <ele>220.59</ele>
        <time>2014-05-01T12:13:42Z</time>
      </trkpt>
      <trkpt lat="43.49388" lon="3.75746">
        <ele>219.73</ele>
        <time>2014-05-01T12:13:59Z</time>
      </trkpt>
      <trkpt lat="43.49386" lon="3.75776">
        <ele>220.31</ele>
        <time>2014-05-01T12:14:15Z</time>
      </trkpt>
      <trkpt lat="43.49384" lon="3.75806">
        <ele>221.17</ele>
        <time>2014-05-01T12:14:32Z</time>
      </trkpt>
      <trkpt lat="43.49384" lon="3.75845">
        <ele>220.41</ele>
        <time>2014-05-01T12:14:54Z</time>
      </trkpt>
      <trkpt lat="43.49384" lon="3.75861">
        <ele>221.9</ele>
        <time>2014-05-01T12:15:13Z</time>
      </trkpt>
      <trkpt lat="43.49383" lon="3.75863">
        <ele>221.09</ele>
        <time>2014-05-01T12:15:33Z</time>
      </trkpt>
      <trkpt lat="43.49385" lon="3.75868">
        <ele>220.89</ele>
        <time>2014-05-01T12:15:47Z</time>
      </trkpt>
      <trkpt lat="43.49383" lon="3.75897">
        <ele>220.12</ele>
        <time>2014-05-01T12:16:05Z</time>
      </trkpt>
      <trkpt lat="43.49378" lon="3.75923">
        <ele>219.3</ele>
        <time>2014-05-01T12:16:20Z</time>
      </trkpt>
      <trkpt lat="43.49369" lon="3.75943">
        <ele>218.8</ele>
        <time>2014-05-01T12:16:35Z</time>
      </trkpt>
      <trkpt lat="43.49367" lon="3.75952">
        <ele>219.02</ele>
        <time>2014-05-01T12:16:42Z</time>
      </trkpt>
      <trkpt lat="43.49359" lon="3.7597">
        <ele>219.17</ele>
        <time>2014-05-01T12:16:58Z</time>
      </trkpt>
      <trkpt lat="43.49356" lon="3.75976">
        <ele>219.78</ele>
        <time>2014-05-01T12:17:11Z</time>
      </trkpt>
      <trkpt lat="43.49353" lon="3.7598">
        <ele>219.79</ele>
        <time>2014-05-01T12:17:14Z</time>
      </trkpt>
      <trkpt lat="43.49344" lon="3.76002">
        <ele>218.6</ele>
        <time>2014-05-01T12:17:32Z</time>
      </trkpt>
      <trkpt lat="43.49342" lon="3.76008">
        <ele>218.84</ele>
        <time>2014-05-01T12:17:36Z</time>
      </trkpt>
      <trkpt lat="43.49333" lon="3.7603">
        <ele>219.08</ele>
        <time>2014-05-01T12:17:49Z</time>
      </trkpt>
      <trkpt lat="43.4933" lon="3.76037">
        <ele>219.44</ele>
        <time>2014-05-01T12:17:54Z</time>
      </trkpt>
      <trkpt lat="43.49326" lon="3.76064">
        <ele>219.75</ele>
        <time>2014-05-01T12:18:12Z</time>
      </trkpt>
      <trkpt lat="43.49325" lon="3.76066">
        <ele>219.74</ele>
        <time>2014-05-01T12:18:13Z</time>
      </trkpt>
      <trkpt lat="43.49314" lon="3.76083">
        <ele>219.51</ele>
        <time>2014-05-01T12:18:32Z</time>
      </trkpt>
      <trkpt lat="43.4931" lon="3.76091">
        <ele>219.28</ele>
        <time>2014-05-01T12:18:48Z</time>
      </trkpt>
      <trkpt lat="43.49308" lon="3.76103">
        <ele>218.84</ele>
        <time>2014-05-01T12:19:02Z</time>
      </trkpt>
      <trkpt lat="43.49307" lon="3.76106">
        <ele>219.08</ele>
        <time>2014-05-01T12:19:19Z</time>
      </trkpt>
      <trkpt lat="43.49304" lon="3.76111">
        <ele>218.25</ele>
        <time>2014-05-01T12:19:42Z</time>
      </trkpt>
      <trkpt lat="43.49303" lon="3.76118">
        <ele>217.08</ele>
        <time>2014-05-01T12:20:13Z</time>
      </trkpt>
      <trkpt lat="43.49305" lon="3.76119">
        <ele>216.24</ele>
        <time>2014-05-01T12:20:30Z</time>
      </trkpt>
      <trkpt lat="43.49305" lon="3.76117">
        <ele>216.49</ele>
        <time>2014-05-01T12:20:54Z</time>
      </trkpt>
      <trkpt lat="43.49305" lon="3.76117">
        <ele>216.11</ele>
        <time>2014-05-01T12:21:20Z</time>
      </trkpt>
      <trkpt lat="43.49306" lon="3.76117">
        <ele>216.29</ele>
        <time>2014-05-01T12:21:29Z</time>
      </trkpt>
      <trkpt lat="43.49303" lon="3.76117">
        <ele>218.93</ele>
        <time>2014-05-01T13:00:49Z</time>
      </trkpt>
      <trkpt lat="43.49301" lon="3.76112">
        <ele>218.55</ele>
        <time>2014-05-01T13:01:07Z</time>
      </trkpt>
      <trkpt lat="43.49304" lon="3.76109">
        <ele>219.8</ele>
        <time>2014-05-01T13:01:29Z</time>
      </trkpt>
      <trkpt lat="43.49305" lon="3.76106">
        <ele>219.53</ele>
        <time>2014-05-01T13:01:33Z</time>
      </trkpt>
      <trkpt lat="43.49309" lon="3.76099">
        <ele>218.98</ele>
        <time>2014-05-01T13:01:40Z</time>
      </trkpt>
      <trkpt lat="43.49312" lon="3.7609">
        <ele>220.22</ele>
        <time>2014-05-01T13:01:57Z</time>
      </trkpt>
      <trkpt lat="43.49319" lon="3.76079">
        <ele>219.97</ele>
        <time>2014-05-01T13:02:08Z</time>
      </trkpt>
      <trkpt lat="43.49328" lon="3.76059">
        <ele>220.32</ele>
        <time>2014-05-01T13:02:26Z</time>
      </trkpt>
      <trkpt lat="43.49329" lon="3.76042">
        <ele>220.7</ele>
        <time>2014-05-01T13:02:42Z</time>
      </trkpt>
      <trkpt lat="43.49332" lon="3.7603">
        <ele>220.13</ele>
        <time>2014-05-01T13:03:00Z</time>
      </trkpt>
      <trkpt lat="43.49339" lon="3.76015">
        <ele>220.84</ele>
        <time>2014-05-01T13:03:14Z</time>
      </trkpt>
      <trkpt lat="43.49341" lon="3.76012">
        <ele>220.4</ele>
        <time>2014-05-01T13:03:31Z</time>
      </trkpt>
      <trkpt lat="43.49341" lon="3.76011">
        <ele>220.34</ele>
        <time>2014-05-01T13:03:32Z</time>
      </trkpt>
      <trkpt lat="43.49343" lon="3.76004">
        <ele>220.16</ele>
        <time>2014-05-01T13:03:37Z</time>
      </trkpt>
      <trkpt lat="43.49344" lon="3.76001">
        <ele>220</ele>
        <time>2014-05-01T13:03:39Z</time>
      </trkpt>
      <trkpt lat="43.49347" lon="3.75993">
        <ele>219.49</ele>
        <time>2014-05-01T13:03:47Z</time>
      </trkpt>
      <trkpt lat="43.49353" lon="3.75977">
        <ele>219.43</ele>
        <time>2014-05-01T13:04:03Z</time>
      </trkpt>
      <trkpt lat="43.49358" lon="3.75966">
        <ele>218.9</ele>
        <time>2014-05-01T13:04:15Z</time>
      </trkpt>
      <trkpt lat="43.49362" lon="3.75958">
        <ele>219.14</ele>
        <time>2014-05-01T13:04:23Z</time>
      </trkpt>
      <trkpt lat="43.49364" lon="3.75953">
        <ele>219.39</ele>
        <time>2014-05-01T13:04:27Z</time>
      </trkpt>
      <trkpt lat="43.49369" lon="3.75941">
        <ele>219.16</ele>
        <time>2014-05-01T13:04:37Z</time>
      </trkpt>
      <trkpt lat="43.49367" lon="3.75928">
        <ele>219.43</ele>
        <time>2014-05-01T13:04:47Z</time>
      </trkpt>
      <trkpt lat="43.4935" lon="3.75909">
        <ele>219.29</ele>
        <time>2014-05-01T13:05:05Z</time>
      </trkpt>
      <trkpt lat="43.49333" lon="3.75889">
        <ele>219.43</ele>
        <time>2014-05-01T13:05:23Z</time>
      </trkpt>
      <trkpt lat="43.49308" lon="3.75874">
        <ele>219.9</ele>
        <time>2014-05-01T13:05:45Z</time>
      </trkpt>
      <trkpt lat="43.49287" lon="3.75866">
        <ele>219.03</ele>
        <time>2014-05-01T13:06:03Z</time>
      </trkpt>
      <trkpt lat="43.49268" lon="3.75853">
        <ele>218.2</ele>
        <time>2014-05-01T13:06:20Z</time>
      </trkpt>
      <trkpt lat="43.4925" lon="3.75834">
        <ele>218.45</ele>
        <time>2014-05-01T13:06:39Z</time>
      </trkpt>
      <trkpt lat="43.49231" lon="3.75817">
        <ele>218.51</ele>
        <time>2014-05-01T13:06:59Z</time>
      </trkpt>
      <trkpt lat="43.49213" lon="3.75807">
        <ele>218.06</ele>
        <time>2014-05-01T13:07:16Z</time>
      </trkpt>
      <trkpt lat="43.49192" lon="3.75805">
        <ele>216.97</ele>
        <time>2014-05-01T13:07:35Z</time>
      </trkpt>
      <trkpt lat="43.49173" lon="3.75806">
        <ele>217.26</ele>
        <time>2014-05-01T13:07:52Z</time>
      </trkpt>
      <trkpt lat="43.49156" lon="3.75812">
        <ele>217.33</ele>
        <time>2014-05-01T13:08:07Z</time>
      </trkpt>
      <trkpt lat="43.49155" lon="3.75813">
        <ele>217.29</ele>
        <time>2014-05-01T13:08:08Z</time>
      </trkpt>
      <trkpt lat="43.49139" lon="3.75822">
        <ele>216.84</ele>
        <time>2014-05-01T13:08:27Z</time>
      </trkpt>
      <trkpt lat="43.49135" lon="3.75825">
        <ele>217.29</ele>
        <time>2014-05-01T13:08:46Z</time>
      </trkpt>
      <trkpt lat="43.49134" lon="3.75826">
        <ele>217.24</ele>
        <time>2014-05-01T13:08:48Z</time>
      </trkpt>
      <trkpt lat="43.49131" lon="3.75827">
        <ele>217.17</ele>
        <time>2014-05-01T13:08:51Z</time>
      </trkpt>
      <trkpt lat="43.49117" lon="3.75845">
        <ele>217.01</ele>
        <time>2014-05-01T13:09:10Z</time>
      </trkpt>
      <trkpt lat="43.49114" lon="3.75856">
        <ele>216.66</ele>
        <time>2014-05-01T13:09:17Z</time>
      </trkpt>
      <trkpt lat="43.49107" lon="3.75874">
        <ele>217.18</ele>
        <time>2014-05-01T13:09:33Z</time>
      </trkpt>
      <trkpt lat="43.49097" lon="3.7588">
        <ele>216.67</ele>
        <time>2014-05-01T13:09:48Z</time>
      </trkpt>
      <trkpt lat="43.49096" lon="3.75881">
        <ele>216.66</ele>
        <time>2014-05-01T13:09:49Z</time>
      </trkpt>
      <trkpt lat="43.49076" lon="3.75881">
        <ele>216.65</ele>
        <time>2014-05-01T13:10:08Z</time>
      </trkpt>
      <trkpt lat="43.49065" lon="3.75874">
        <ele>216.64</ele>
        <time>2014-05-01T13:10:21Z</time>
      </trkpt>
      <trkpt lat="43.49062" lon="3.75871">
        <ele>216.64</ele>
        <time>2014-05-01T13:10:24Z</time>
      </trkpt>
      <trkpt lat="43.49058" lon="3.75866">
        <ele>216.6</ele>
        <time>2014-05-01T13:10:42Z</time>
      </trkpt>
      <trkpt lat="43.49057" lon="3.75864">
        <ele>216.89</ele>
        <time>2014-05-01T13:10:48Z</time>
      </trkpt>
      <trkpt lat="43.49052" lon="3.75857">
        <ele>216.3</ele>
        <time>2014-05-01T13:10:55Z</time>
      </trkpt>
      <trkpt lat="43.4905" lon="3.75852">
        <ele>216</ele>
        <time>2014-05-01T13:10:59Z</time>
      </trkpt>
      <trkpt lat="43.49038" lon="3.75822">
        <ele>215.45</ele>
        <time>2014-05-01T13:11:20Z</time>
      </trkpt>
      <trkpt lat="43.49028" lon="3.75794">
        <ele>215.55</ele>
        <time>2014-05-01T13:11:38Z</time>
      </trkpt>
      <trkpt lat="43.49016" lon="3.75761">
        <ele>214.41</ele>
        <time>2014-05-01T13:11:59Z</time>
      </trkpt>
      <trkpt lat="43.49004" lon="3.75732">
        <ele>215.34</ele>
        <time>2014-05-01T13:12:18Z</time>
      </trkpt>
      <trkpt lat="43.48988" lon="3.757">
        <ele>214.77</ele>
        <time>2014-05-01T13:12:40Z</time>
      </trkpt>
      <trkpt lat="43.48973" lon="3.75673">
        <ele>214.75</ele>
        <time>2014-05-01T13:13:00Z</time>
      </trkpt>
      <trkpt lat="43.48967" lon="3.75664">
        <ele>214.58</ele>
        <time>2014-05-01T13:13:09Z</time>
      </trkpt>
      <trkpt lat="43.48963" lon="3.75658">
        <ele>214.4</ele>
        <time>2014-05-01T13:13:14Z</time>
      </trkpt>
      <trkpt lat="43.48944" lon="3.75641">
        <ele>214.83</ele>
        <time>2014-05-01T13:13:34Z</time>
      </trkpt>
      <trkpt lat="43.48943" lon="3.7564">
        <ele>214.87</ele>
        <time>2014-05-01T13:13:35Z</time>
      </trkpt>
      <trkpt lat="43.4894" lon="3.75637">
        <ele>214.79</ele>
        <time>2014-05-01T13:13:38Z</time>
      </trkpt>
      <trkpt lat="43.48919" lon="3.75624">
        <ele>214.31</ele>
        <time>2014-05-01T13:13:56Z</time>
      </trkpt>
      <trkpt lat="43.48896" lon="3.75615">
        <ele>213.44</ele>
        <time>2014-05-01T13:14:16Z</time>
      </trkpt>
      <trkpt lat="43.48868" lon="3.75612">
        <ele>213.13</ele>
        <time>2014-05-01T13:14:39Z</time>
      </trkpt>
      <trkpt lat="43.4885" lon="3.75612">
        <ele>212.19</ele>
        <time>2014-05-01T13:14:55Z</time>
      </trkpt>
      <trkpt lat="43.48831" lon="3.75614">
        <ele>211.86</ele>
        <time>2014-05-01T13:15:12Z</time>
      </trkpt>
      <trkpt lat="43.48821" lon="3.75615">
        <ele>210.96</ele>
        <time>2014-05-01T13:15:30Z</time>
      </trkpt>
      <trkpt lat="43.48814" lon="3.75617">
        <ele>210.82</ele>
        <time>2014-05-01T13:15:49Z</time>
      </trkpt>
      <trkpt lat="43.48809" lon="3.75617">
        <ele>210.46</ele>
        <time>2014-05-01T13:15:53Z</time>
      </trkpt>
      <trkpt lat="43.48802" lon="3.75619">
        <ele>210.08</ele>
        <time>2014-05-01T13:15:59Z</time>
      </trkpt>
      <trkpt lat="43.48787" lon="3.75631">
        <ele>208.81</ele>
        <time>2014-05-01T13:16:16Z</time>
      </trkpt>
      <trkpt lat="43.48785" lon="3.75633">
        <ele>208.7</ele>
        <time>2014-05-01T13:16:18Z</time>
      </trkpt>
      <trkpt lat="43.48774" lon="3.75654">
        <ele>207.92</ele>
        <time>2014-05-01T13:16:35Z</time>
      </trkpt>
      <trkpt lat="43.48772" lon="3.75657">
        <ele>207.85</ele>
        <time>2014-05-01T13:16:37Z</time>
      </trkpt>
      <trkpt lat="43.48761" lon="3.75676">
        <ele>207.78</ele>
        <time>2014-05-01T13:16:54Z</time>
      </trkpt>
      <trkpt lat="43.48742" lon="3.75682">
        <ele>207.3</ele>
        <time>2014-05-01T13:17:11Z</time>
      </trkpt>
      <trkpt lat="43.48722" lon="3.75681">
        <ele>206.82</ele>
        <time>2014-05-01T13:17:28Z</time>
      </trkpt>
      <trkpt lat="43.48715" lon="3.75677">
        <ele>206.6</ele>
        <time>2014-05-01T13:17:34Z</time>
      </trkpt>
      <trkpt lat="43.48709" lon="3.75674">
        <ele>206.62</ele>
        <time>2014-05-01T13:17:40Z</time>
      </trkpt>
      <trkpt lat="43.48688" lon="3.75666">
        <ele>205.84</ele>
        <time>2014-05-01T13:17:59Z</time>
      </trkpt>
      <trkpt lat="43.48673" lon="3.75646">
        <ele>205.16</ele>
        <time>2014-05-01T13:18:16Z</time>
      </trkpt>
      <trkpt lat="43.48664" lon="3.75618">
        <ele>204.85</ele>
        <time>2014-05-01T13:18:37Z</time>
      </trkpt>
      <trkpt lat="43.48673" lon="3.75593">
        <ele>203.77</ele>
        <time>2014-05-01T13:18:55Z</time>
      </trkpt>
      <trkpt lat="43.48674" lon="3.7559">
        <ele>204.16</ele>
        <time>2014-05-01T13:19:01Z</time>
      </trkpt>
      <trkpt lat="43.48676" lon="3.75583">
        <ele>204.51</ele>
        <time>2014-05-01T13:19:05Z</time>
      </trkpt>
      <trkpt lat="43.48681" lon="3.75553">
        <ele>204.3</ele>
        <time>2014-05-01T13:19:23Z</time>
      </trkpt>
      <trkpt lat="43.48681" lon="3.75542">
        <ele>204.27</ele>
        <time>2014-05-01T13:19:39Z</time>
      </trkpt>
      <trkpt lat="43.48682" lon="3.75526">
        <ele>204.19</ele>
        <time>2014-05-01T13:19:56Z</time>
      </trkpt>
      <trkpt lat="43.48682" lon="3.75504">
        <ele>203.92</ele>
        <time>2014-05-01T13:20:09Z</time>
      </trkpt>
      <trkpt lat="43.48674" lon="3.75479">
        <ele>203.46</ele>
        <time>2014-05-01T13:20:26Z</time>
      </trkpt>
      <trkpt lat="43.48675" lon="3.75448">
        <ele>202.77</ele>
        <time>2014-05-01T13:20:44Z</time>
      </trkpt>
      <trkpt lat="43.4868" lon="3.75432">
        <ele>201.92</ele>
        <time>2014-05-01T13:20:55Z</time>
      </trkpt>
      <trkpt lat="43.48684" lon="3.75427">
        <ele>202.03</ele>
        <time>2014-05-01T13:21:00Z</time>
      </trkpt>
      <trkpt lat="43.48704" lon="3.75407">
        <ele>201.43</ele>
        <time>2014-05-01T13:21:20Z</time>
      </trkpt>
      <trkpt lat="43.48721" lon="3.7539">
        <ele>201.01</ele>
        <time>2014-05-01T13:21:37Z</time>
      </trkpt>
      <trkpt lat="43.48733" lon="3.7537">
        <ele>201.73</ele>
        <time>2014-05-01T13:21:54Z</time>
      </trkpt>
      <trkpt lat="43.48732" lon="3.75342">
        <ele>202.91</ele>
        <time>2014-05-01T13:22:13Z</time>
      </trkpt>
      <trkpt lat="43.48732" lon="3.75336">
        <ele>204.5</ele>
        <time>2014-05-01T13:22:30Z</time>
      </trkpt>
      <trkpt lat="43.48726" lon="3.75315">
        <ele>204.46</ele>
        <time>2014-05-01T13:22:46Z</time>
      </trkpt>
      <trkpt lat="43.48719" lon="3.75294">
        <ele>205</ele>
        <time>2014-05-01T13:23:01Z</time>
      </trkpt>
      <trkpt lat="43.48717" lon="3.75293">
        <ele>205.07</ele>
        <time>2014-05-01T13:23:03Z</time>
      </trkpt>
      <trkpt lat="43.48714" lon="3.75282">
        <ele>205.43</ele>
        <time>2014-05-01T13:23:11Z</time>
      </trkpt>
      <trkpt lat="43.48712" lon="3.75277">
        <ele>205.69</ele>
        <time>2014-05-01T13:23:15Z</time>
      </trkpt>
      <trkpt lat="43.48697" lon="3.75255">
        <ele>207.56</ele>
        <time>2014-05-01T13:23:35Z</time>
      </trkpt>
      <trkpt lat="43.48694" lon="3.75253">
        <ele>207.78</ele>
        <time>2014-05-01T13:23:41Z</time>
      </trkpt>
      <trkpt lat="43.48692" lon="3.75252">
        <ele>207.85</ele>
        <time>2014-05-01T13:23:43Z</time>
      </trkpt>
      <trkpt lat="43.48683" lon="3.75248">
        <ele>208.14</ele>
        <time>2014-05-01T13:23:59Z</time>
      </trkpt>
      <trkpt lat="43.48683" lon="3.75254">
        <ele>208.94</ele>
        <time>2014-05-01T13:24:34Z</time>
      </trkpt>
      <trkpt lat="43.48683" lon="3.75251">
        <ele>208.57</ele>
        <time>2014-05-01T13:25:47Z</time>
      </trkpt>
      <trkpt lat="43.48675" lon="3.7524">
        <ele>208.37</ele>
        <time>2014-05-01T13:25:56Z</time>
      </trkpt>
      <trkpt lat="43.48653" lon="3.75223">
        <ele>208.77</ele>
        <time>2014-05-01T13:26:14Z</time>
      </trkpt>
      <trkpt lat="43.48629" lon="3.75205">
        <ele>209.11</ele>
        <time>2014-05-01T13:26:33Z</time>
      </trkpt>
      <trkpt lat="43.48604" lon="3.75189">
        <ele>208.97</ele>
        <time>2014-05-01T13:26:53Z</time>
      </trkpt>
      <trkpt lat="43.48577" lon="3.75181">
        <ele>209.2</ele>
        <time>2014-05-01T13:27:12Z</time>
      </trkpt>
      <trkpt lat="43.48541" lon="3.75179">
        <ele>209.43</ele>
        <time>2014-05-01T13:27:37Z</time>
      </trkpt>
      <trkpt lat="43.48515" lon="3.7518">
        <ele>209.46</ele>
        <time>2014-05-01T13:27:56Z</time>
      </trkpt>
      <trkpt lat="43.48488" lon="3.7518">
        <ele>209.44</ele>
        <time>2014-05-01T13:28:16Z</time>
      </trkpt>
      <trkpt lat="43.48464" lon="3.75165">
        <ele>209.59</ele>
        <time>2014-05-01T13:28:35Z</time>
      </trkpt>
      <trkpt lat="43.48437" lon="3.75137">
        <ele>209.6</ele>
        <time>2014-05-01T13:28:59Z</time>
      </trkpt>
      <trkpt lat="43.48419" lon="3.7511">
        <ele>209.26</ele>
        <time>2014-05-01T13:29:18Z</time>
      </trkpt>
      <trkpt lat="43.48396" lon="3.7509">
        <ele>210.05</ele>
        <time>2014-05-01T13:29:36Z</time>
      </trkpt>
      <trkpt lat="43.48368" lon="3.75082">
        <ele>210.57</ele>
        <time>2014-05-01T13:29:56Z</time>
      </trkpt>
      <trkpt lat="43.48339" lon="3.75076">
        <ele>210.73</ele>
        <time>2014-05-01T13:30:17Z</time>
      </trkpt>
      <trkpt lat="43.48311" lon="3.75067">
        <ele>210.48</ele>
        <time>2014-05-01T13:30:37Z</time>
      </trkpt>
      <trkpt lat="43.48283" lon="3.75052">
        <ele>210.86</ele>
        <time>2014-05-01T13:30:59Z</time>
      </trkpt>
      <trkpt lat="43.48256" lon="3.75035">
        <ele>210.92</ele>
        <time>2014-05-01T13:31:21Z</time>
      </trkpt>
      <trkpt lat="43.4824" lon="3.75015">
        <ele>210.89</ele>
        <time>2014-05-01T13:31:37Z</time>
      </trkpt>
      <trkpt lat="43.48225" lon="3.74981">
        <ele>211.08</ele>
        <time>2014-05-01T13:31:58Z</time>
      </trkpt>
      <trkpt lat="43.48222" lon="3.74947">
        <ele>211.09</ele>
        <time>2014-05-01T13:32:16Z</time>
      </trkpt>
      <trkpt lat="43.48221" lon="3.74934">
        <ele>211.68</ele>
        <time>2014-05-01T13:32:32Z</time>
      </trkpt>
      <trkpt lat="43.4822" lon="3.7493">
        <ele>212.25</ele>
        <time>2014-05-01T13:32:56Z</time>
      </trkpt>
      <trkpt lat="43.48219" lon="3.74924">
        <ele>212.31</ele>
        <time>2014-05-01T13:33:13Z</time>
      </trkpt>
      <trkpt lat="43.48219" lon="3.74918">
        <ele>212.37</ele>
        <time>2014-05-01T13:33:23Z</time>
      </trkpt>
      <trkpt lat="43.48218" lon="3.74885">
        <ele>211.62</ele>
        <time>2014-05-01T13:33:44Z</time>
      </trkpt>
      <trkpt lat="43.48218" lon="3.74884">
        <ele>211.85</ele>
        <time>2014-05-01T13:33:49Z</time>
      </trkpt>
      <trkpt lat="43.48219" lon="3.7488">
        <ele>212.08</ele>
        <time>2014-05-01T13:33:52Z</time>
      </trkpt>
      <trkpt lat="43.4822" lon="3.74871">
        <ele>210.88</ele>
        <time>2014-05-01T13:34:07Z</time>
      </trkpt>
      <trkpt lat="43.48219" lon="3.74865">
        <ele>210.76</ele>
        <time>2014-05-01T13:34:27Z</time>
      </trkpt>
      <trkpt lat="43.4822" lon="3.74851">
        <ele>210.75</ele>
        <time>2014-05-01T13:34:35Z</time>
      </trkpt>
      <trkpt lat="43.48225" lon="3.74814">
        <ele>210.11</ele>
        <time>2014-05-01T13:34:54Z</time>
      </trkpt>
      <trkpt lat="43.48225" lon="3.74775">
        <ele>210.96</ele>
        <time>2014-05-01T13:35:14Z</time>
      </trkpt>
      <trkpt lat="43.48226" lon="3.74732">
        <ele>211.11</ele>
        <time>2014-05-01T13:35:37Z</time>
      </trkpt>
      <trkpt lat="43.48223" lon="3.74694">
        <ele>211.53</ele>
        <time>2014-05-01T13:35:57Z</time>
      </trkpt>
      <trkpt lat="43.48214" lon="3.74657">
        <ele>211.27</ele>
        <time>2014-05-01T13:36:17Z</time>
      </trkpt>
      <trkpt lat="43.48201" lon="3.74617">
        <ele>211.2</ele>
        <time>2014-05-01T13:36:40Z</time>
      </trkpt>
      <trkpt lat="43.48191" lon="3.74576">
        <ele>211.62</ele>
        <time>2014-05-01T13:37:02Z</time>
      </trkpt>
      <trkpt lat="43.48179" lon="3.7454">
        <ele>211.94</ele>
        <time>2014-05-01T13:37:23Z</time>
      </trkpt>
      <trkpt lat="43.48168" lon="3.74513">
        <ele>212.02</ele>
        <time>2014-05-01T13:37:39Z</time>
      </trkpt>
      <trkpt lat="43.48158" lon="3.74486">
        <ele>212.81</ele>
        <time>2014-05-01T13:37:56Z</time>
      </trkpt>
      <trkpt lat="43.48147" lon="3.74454">
        <ele>213.6</ele>
        <time>2014-05-01T13:38:13Z</time>
      </trkpt>
      <trkpt lat="43.48139" lon="3.74429">
        <ele>213.39</ele>
        <time>2014-05-01T13:38:27Z</time>
      </trkpt>
      <trkpt lat="43.48137" lon="3.74398">
        <ele>214.61</ele>
        <time>2014-05-01T13:38:44Z</time>
      </trkpt>
      <trkpt lat="43.48137" lon="3.74364">
        <ele>215.91</ele>
        <time>2014-05-01T13:39:03Z</time>
      </trkpt>
      <trkpt lat="43.48137" lon="3.74363">
        <ele>215.9</ele>
        <time>2014-05-01T13:39:04Z</time>
      </trkpt>
      <trkpt lat="43.48138" lon="3.74352">
        <ele>216.04</ele>
        <time>2014-05-01T13:39:10Z</time>
      </trkpt>
      <trkpt lat="43.4814" lon="3.74322">
        <ele>217.01</ele>
        <time>2014-05-01T13:39:27Z</time>
      </trkpt>
      <trkpt lat="43.48142" lon="3.74289">
        <ele>217.45</ele>
        <time>2014-05-01T13:39:45Z</time>
      </trkpt>
      <trkpt lat="43.48143" lon="3.74284">
        <ele>217.44</ele>
        <time>2014-05-01T13:39:48Z</time>
      </trkpt>
      <trkpt lat="43.48153" lon="3.74253">
        <ele>217.82</ele>
        <time>2014-05-01T13:40:08Z</time>
      </trkpt>
      <trkpt lat="43.48158" lon="3.74234">
        <ele>218.65</ele>
        <time>2014-05-01T13:40:27Z</time>
      </trkpt>
      <trkpt lat="43.4816" lon="3.74235">
        <ele>218.14</ele>
        <time>2014-05-01T13:40:51Z</time>
      </trkpt>
      <trkpt lat="43.48159" lon="3.74236">
        <ele>218.64</ele>
        <time>2014-05-01T13:41:16Z</time>
      </trkpt>
      <trkpt lat="43.48162" lon="3.74237">
        <ele>218.7</ele>
        <time>2014-05-01T13:41:43Z</time>
      </trkpt>
      <trkpt lat="43.4816" lon="3.74236">
        <ele>218.02</ele>
        <time>2014-05-01T13:42:12Z</time>
      </trkpt>
      <trkpt lat="43.48159" lon="3.74235">
        <ele>217.71</ele>
        <time>2014-05-01T13:42:42Z</time>
      </trkpt>
      <trkpt lat="43.4816" lon="3.74233">
        <ele>218.62</ele>
        <time>2014-05-01T13:43:12Z</time>
      </trkpt>
      <trkpt lat="43.48159" lon="3.74234">
        <ele>218.59</ele>
        <time>2014-05-01T13:43:47Z</time>
      </trkpt>
      <trkpt lat="43.48159" lon="3.74233">
        <ele>219.43</ele>
        <time>2014-05-01T13:44:17Z</time>
      </trkpt>
      <trkpt lat="43.48159" lon="3.74232">
        <ele>217.96</ele>
        <time>2014-05-01T13:44:50Z</time>
      </trkpt>
      <trkpt lat="43.48155" lon="3.74232">
        <ele>217.96</ele>
        <time>2014-05-01T13:45:24Z</time>
      </trkpt>
      <trkpt lat="43.48159" lon="3.74233">
        <ele>217.87</ele>
        <time>2014-05-01T13:45:58Z</time>
      </trkpt>
      <trkpt lat="43.4816" lon="3.74235">
        <ele>218.01</ele>
        <time>2014-05-01T13:46:30Z</time>
      </trkpt>
      <trkpt lat="43.48164" lon="3.74238">
        <ele>218.31</ele>
        <time>2014-05-01T13:47:03Z</time>
      </trkpt>
      <trkpt lat="43.48165" lon="3.74238">
        <ele>217.64</ele>
        <time>2014-05-01T13:47:38Z</time>
      </trkpt>
      <trkpt lat="43.48162" lon="3.74236">
        <ele>217.63</ele>
        <time>2014-05-01T13:48:05Z</time>
      </trkpt>
      <trkpt lat="43.4816" lon="3.74234">
        <ele>218.61</ele>
        <time>2014-05-01T13:48:35Z</time>
      </trkpt>
      <trkpt lat="43.4816" lon="3.74233">
        <ele>217.69</ele>
        <time>2014-05-01T13:48:56Z</time>
      </trkpt>
      <trkpt lat="43.48159" lon="3.74228">
        <ele>218.08</ele>
        <time>2014-05-01T13:49:12Z</time>
      </trkpt>
      <trkpt lat="43.48159" lon="3.74228">
        <ele>218.08</ele>
        <time>2014-05-01T13:49:13Z</time>
      </trkpt>
      <trkpt lat="43.48164" lon="3.74217">
        <ele>218.75</ele>
        <time>2014-05-01T13:49:27Z</time>
      </trkpt>
      <trkpt lat="43.48166" lon="3.74213">
        <ele>218.89</ele>
        <time>2014-05-01T13:49:30Z</time>
      </trkpt>
      <trkpt lat="43.48166" lon="3.74207">
        <ele>219.03</ele>
        <time>2014-05-01T13:49:33Z</time>
      </trkpt>
      <trkpt lat="43.48173" lon="3.74188">
        <ele>219.02</ele>
        <time>2014-05-01T13:49:45Z</time>
      </trkpt>
      <trkpt lat="43.48176" lon="3.7418">
        <ele>219.33</ele>
        <time>2014-05-01T13:49:50Z</time>
      </trkpt>
      <trkpt lat="43.48179" lon="3.74173">
        <ele>219.62</ele>
        <time>2014-05-01T13:49:54Z</time>
      </trkpt>
      <trkpt lat="43.48181" lon="3.74166">
        <ele>219.99</ele>
        <time>2014-05-01T13:49:59Z</time>
      </trkpt>
      <trkpt lat="43.48184" lon="3.74148">
        <ele>220.69</ele>
        <time>2014-05-01T13:50:09Z</time>
      </trkpt>
      <trkpt lat="43.48185" lon="3.7414">
        <ele>221.03</ele>
        <time>2014-05-01T13:50:14Z</time>
      </trkpt>
      <trkpt lat="43.48188" lon="3.74112">
        <ele>221.19</ele>
        <time>2014-05-01T13:50:30Z</time>
      </trkpt>
      <trkpt lat="43.48191" lon="3.74081">
        <ele>221.55</ele>
        <time>2014-05-01T13:50:47Z</time>
      </trkpt>
      <trkpt lat="43.48186" lon="3.74059">
        <ele>221.63</ele>
        <time>2014-05-01T13:51:01Z</time>
      </trkpt>
      <trkpt lat="43.48186" lon="3.74057">
        <ele>221.6</ele>
        <time>2014-05-01T13:51:03Z</time>
      </trkpt>
      <trkpt lat="43.48186" lon="3.74047">
        <ele>222.05</ele>
        <time>2014-05-01T13:51:09Z</time>
      </trkpt>
      <trkpt lat="43.48179" lon="3.74024">
        <ele>222.91</ele>
        <time>2014-05-01T13:51:24Z</time>
      </trkpt>
      <trkpt lat="43.4818" lon="3.7401">
        <ele>223.64</ele>
        <time>2014-05-01T13:51:32Z</time>
      </trkpt>
      <trkpt lat="43.48183" lon="3.73991">
        <ele>224.19</ele>
        <time>2014-05-01T13:51:43Z</time>
      </trkpt>
      <trkpt lat="43.48183" lon="3.7397">
        <ele>225.22</ele>
        <time>2014-05-01T13:51:55Z</time>
      </trkpt>
      <trkpt lat="43.48183" lon="3.73961">
        <ele>225.67</ele>
        <time>2014-05-01T13:52:01Z</time>
      </trkpt>
      <trkpt lat="43.48186" lon="3.73936">
        <ele>225.84</ele>
        <time>2014-05-01T13:52:17Z</time>
      </trkpt>
      <trkpt lat="43.48188" lon="3.73923">
        <ele>225.14</ele>
        <time>2014-05-01T13:52:25Z</time>
      </trkpt>
      <trkpt lat="43.48193" lon="3.73904">
        <ele>225.83</ele>
        <time>2014-05-01T13:52:37Z</time>
      </trkpt>
      <trkpt lat="43.482" lon="3.73883">
        <ele>225.94</ele>
        <time>2014-05-01T13:52:52Z</time>
      </trkpt>
      <trkpt lat="43.48207" lon="3.73866">
        <ele>225.98</ele>
        <time>2014-05-01T13:53:04Z</time>
      </trkpt>
      <trkpt lat="43.48215" lon="3.73846">
        <ele>226.12</ele>
        <time>2014-05-01T13:53:17Z</time>
      </trkpt>
      <trkpt lat="43.48224" lon="3.73822">
        <ele>225.61</ele>
        <time>2014-05-01T13:53:33Z</time>
      </trkpt>
      <trkpt lat="43.48233" lon="3.73794">
        <ele>225.45</ele>
        <time>2014-05-01T13:53:51Z</time>
      </trkpt>
      <trkpt lat="43.48243" lon="3.73769">
        <ele>225.47</ele>
        <time>2014-05-01T13:54:08Z</time>
      </trkpt>
      <trkpt lat="43.48253" lon="3.73744">
        <ele>225.35</ele>
        <time>2014-05-01T13:54:25Z</time>
      </trkpt>
      <trkpt lat="43.48262" lon="3.73721">
        <ele>224.71</ele>
        <time>2014-05-01T13:54:42Z</time>
      </trkpt>
      <trkpt lat="43.48274" lon="3.73701">
        <ele>224.09</ele>
        <time>2014-05-01T13:54:58Z</time>
      </trkpt>
      <trkpt lat="43.48279" lon="3.73682">
        <ele>224.09</ele>
        <time>2014-05-01T13:55:11Z</time>
      </trkpt>
      <trkpt lat="43.48278" lon="3.73657">
        <ele>223.69</ele>
        <time>2014-05-01T13:55:26Z</time>
      </trkpt>
      <trkpt lat="43.48272" lon="3.73635">
        <ele>223.2</ele>
        <time>2014-05-01T13:55:40Z</time>
      </trkpt>
      <trkpt lat="43.48264" lon="3.73608">
        <ele>223.24</ele>
        <time>2014-05-01T13:55:57Z</time>
      </trkpt>
      <trkpt lat="43.48263" lon="3.73599">
        <ele>223.07</ele>
        <time>2014-05-01T13:56:02Z</time>
      </trkpt>
      <trkpt lat="43.48261" lon="3.73594">
        <ele>222.94</ele>
        <time>2014-05-01T13:56:06Z</time>
      </trkpt>
      <trkpt lat="43.48259" lon="3.73583">
        <ele>222.63</ele>
        <time>2014-05-01T13:56:13Z</time>
      </trkpt>
      <trkpt lat="43.48253" lon="3.73558">
        <ele>222.51</ele>
        <time>2014-05-01T13:56:29Z</time>
      </trkpt>
      <trkpt lat="43.48249" lon="3.73534">
        <ele>222.58</ele>
        <time>2014-05-01T13:56:43Z</time>
      </trkpt>
      <trkpt lat="43.48249" lon="3.73531">
        <ele>222.58</ele>
        <time>2014-05-01T13:56:45Z</time>
      </trkpt>
      <trkpt lat="43.48246" lon="3.73518">
        <ele>222.37</ele>
        <time>2014-05-01T13:56:53Z</time>
      </trkpt>
      <trkpt lat="43.48238" lon="3.73495">
        <ele>222.49</ele>
        <time>2014-05-01T13:57:11Z</time>
      </trkpt>
      <trkpt lat="43.48233" lon="3.73493">
        <ele>223.25</ele>
        <time>2014-05-01T13:57:41Z</time>
      </trkpt>
      <trkpt lat="43.48232" lon="3.73477">
        <ele>223.06</ele>
        <time>2014-05-01T13:57:58Z</time>
      </trkpt>
      <trkpt lat="43.48233" lon="3.73473">
        <ele>223.29</ele>
        <time>2014-05-01T13:58:01Z</time>
      </trkpt>
      <trkpt lat="43.48234" lon="3.73463">
        <ele>223.87</ele>
        <time>2014-05-01T13:58:11Z</time>
      </trkpt>
      <trkpt lat="43.48234" lon="3.73459">
        <ele>223.9</ele>
        <time>2014-05-01T13:58:13Z</time>
      </trkpt>
      <trkpt lat="43.4824" lon="3.73443">
        <ele>224.86</ele>
        <time>2014-05-01T13:58:26Z</time>
      </trkpt>
      <trkpt lat="43.48244" lon="3.73433">
        <ele>225.46</ele>
        <time>2014-05-01T13:58:33Z</time>
      </trkpt>
      <trkpt lat="43.48249" lon="3.73425">
        <ele>225.7</ele>
        <time>2014-05-01T13:58:39Z</time>
      </trkpt>
      <trkpt lat="43.48253" lon="3.73418">
        <ele>225.9</ele>
        <time>2014-05-01T13:58:44Z</time>
      </trkpt>
      <trkpt lat="43.48262" lon="3.73408">
        <ele>225.78</ele>
        <time>2014-05-01T13:58:55Z</time>
      </trkpt>
      <trkpt lat="43.48266" lon="3.73406">
        <ele>225.87</ele>
        <time>2014-05-01T13:58:59Z</time>
      </trkpt>
      <trkpt lat="43.48284" lon="3.73401">
        <ele>226.06</ele>
        <time>2014-05-01T13:59:15Z</time>
      </trkpt>
      <trkpt lat="43.48307" lon="3.73396">
        <ele>225.56</ele>
        <time>2014-05-01T13:59:33Z</time>
      </trkpt>
      <trkpt lat="43.48326" lon="3.73394">
        <ele>225.23</ele>
        <time>2014-05-01T13:59:49Z</time>
      </trkpt>
      <trkpt lat="43.48337" lon="3.73393">
        <ele>225.2</ele>
        <time>2014-05-01T13:59:59Z</time>
      </trkpt>
      <trkpt lat="43.48349" lon="3.73389">
        <ele>225.97</ele>
        <time>2014-05-01T14:00:09Z</time>
      </trkpt>
      <trkpt lat="43.48364" lon="3.73384">
        <ele>226.48</ele>
        <time>2014-05-01T14:00:27Z</time>
      </trkpt>
      <trkpt lat="43.48372" lon="3.73379">
        <ele>226.86</ele>
        <time>2014-05-01T14:00:41Z</time>
      </trkpt>
      <trkpt lat="43.48381" lon="3.73368">
        <ele>228.42</ele>
        <time>2014-05-01T14:00:57Z</time>
      </trkpt>
      <trkpt lat="43.48387" lon="3.73361">
        <ele>228.66</ele>
        <time>2014-05-01T14:01:27Z</time>
      </trkpt>
      <trkpt lat="43.48391" lon="3.73356">
        <ele>228.83</ele>
        <time>2014-05-01T14:01:49Z</time>
      </trkpt>
      <trkpt lat="43.48394" lon="3.73353">
        <ele>229.48</ele>
        <time>2014-05-01T14:01:52Z</time>
      </trkpt>
      <trkpt lat="43.48406" lon="3.73341">
        <ele>230.17</ele>
        <time>2014-05-01T14:02:07Z</time>
      </trkpt>
      <trkpt lat="43.48421" lon="3.73324">
        <ele>229.57</ele>
        <time>2014-05-01T14:02:25Z</time>
      </trkpt>
      <trkpt lat="43.48426" lon="3.73318">
        <ele>228.25</ele>
        <time>2014-05-01T14:02:38Z</time>
      </trkpt>
      <trkpt lat="43.48428" lon="3.73317">
        <ele>228.14</ele>
        <time>2014-05-01T14:02:46Z</time>
      </trkpt>
      <trkpt lat="43.48436" lon="3.73314">
        <ele>228.07</ele>
        <time>2014-05-01T14:02:54Z</time>
      </trkpt>
      <trkpt lat="43.48454" lon="3.73314">
        <ele>226.92</ele>
        <time>2014-05-01T14:03:10Z</time>
      </trkpt>
      <trkpt lat="43.48469" lon="3.73312">
        <ele>225.95</ele>
        <time>2014-05-01T14:03:24Z</time>
      </trkpt>
      <trkpt lat="43.48489" lon="3.7331">
        <ele>224.67</ele>
        <time>2014-05-01T14:03:40Z</time>
      </trkpt>
      <trkpt lat="43.48507" lon="3.73304">
        <ele>223.81</ele>
        <time>2014-05-01T14:03:56Z</time>
      </trkpt>
      <trkpt lat="43.48524" lon="3.73294">
        <ele>223.61</ele>
        <time>2014-05-01T14:04:12Z</time>
      </trkpt>
      <trkpt lat="43.48539" lon="3.7328">
        <ele>222.74</ele>
        <time>2014-05-01T14:04:27Z</time>
      </trkpt>
      <trkpt lat="43.48549" lon="3.73261">
        <ele>221.78</ele>
        <time>2014-05-01T14:04:41Z</time>
      </trkpt>
      <trkpt lat="43.48554" lon="3.73241">
        <ele>221.72</ele>
        <time>2014-05-01T14:04:55Z</time>
      </trkpt>
      <trkpt lat="43.48555" lon="3.73232">
        <ele>221.63</ele>
        <time>2014-05-01T14:05:02Z</time>
      </trkpt>
      <trkpt lat="43.48552" lon="3.73208">
        <ele>221.85</ele>
        <time>2014-05-01T14:05:18Z</time>
      </trkpt>
      <trkpt lat="43.4855" lon="3.73188">
        <ele>221.61</ele>
        <time>2014-05-01T14:05:32Z</time>
      </trkpt>
      <trkpt lat="43.4855" lon="3.73167">
        <ele>221.23</ele>
        <time>2014-05-01T14:05:47Z</time>
      </trkpt>
      <trkpt lat="43.48551" lon="3.73162">
        <ele>221.47</ele>
        <time>2014-05-01T14:05:51Z</time>
      </trkpt>
      <trkpt lat="43.48557" lon="3.73149">
        <ele>220.83</ele>
        <time>2014-05-01T14:06:04Z</time>
      </trkpt>
      <trkpt lat="43.4856" lon="3.73148">
        <ele>219.83</ele>
        <time>2014-05-01T14:06:19Z</time>
      </trkpt>
      <trkpt lat="43.48562" lon="3.73148">
        <ele>219.78</ele>
        <time>2014-05-01T14:06:21Z</time>
      </trkpt>
      <trkpt lat="43.48565" lon="3.73146">
        <ele>219.78</ele>
        <time>2014-05-01T14:06:25Z</time>
      </trkpt>
      <trkpt lat="43.48568" lon="3.73145">
        <ele>219.81</ele>
        <time>2014-05-01T14:06:28Z</time>
      </trkpt>
      <trkpt lat="43.4857" lon="3.73143">
        <ele>220.33</ele>
        <time>2014-05-01T14:06:46Z</time>
      </trkpt>
      <trkpt lat="43.48574" lon="3.73134">
        <ele>219.61</ele>
        <time>2014-05-01T14:07:07Z</time>
      </trkpt>
      <trkpt lat="43.48575" lon="3.73118">
        <ele>218.54</ele>
        <time>2014-05-01T14:07:23Z</time>
      </trkpt>
      <trkpt lat="43.48576" lon="3.73117">
        <ele>218.55</ele>
        <time>2014-05-01T14:07:24Z</time>
      </trkpt>
      <trkpt lat="43.48585" lon="3.73102">
        <ele>216.64</ele>
        <time>2014-05-01T14:07:40Z</time>
      </trkpt>
      <trkpt lat="43.48591" lon="3.7309">
        <ele>213.56</ele>
        <time>2014-05-01T14:07:58Z</time>
      </trkpt>
      <trkpt lat="43.48594" lon="3.73088">
        <ele>212.76</ele>
        <time>2014-05-01T14:08:03Z</time>
      </trkpt>
      <trkpt lat="43.48597" lon="3.73087">
        <ele>212.35</ele>
        <time>2014-05-01T14:08:06Z</time>
      </trkpt>
      <trkpt lat="43.48609" lon="3.73082">
        <ele>211.21</ele>
        <time>2014-05-01T14:08:19Z</time>
      </trkpt>
      <trkpt lat="43.48613" lon="3.73077">
        <ele>210.13</ele>
        <time>2014-05-01T14:08:39Z</time>
      </trkpt>
      <trkpt lat="43.48614" lon="3.7307">
        <ele>210.29</ele>
        <time>2014-05-01T14:09:07Z</time>
      </trkpt>
      <trkpt lat="43.48621" lon="3.73055">
        <ele>207.3</ele>
        <time>2014-05-01T14:09:25Z</time>
      </trkpt>
      <trkpt lat="43.48626" lon="3.73044">
        <ele>206.19</ele>
        <time>2014-05-01T14:09:42Z</time>
      </trkpt>
      <trkpt lat="43.48632" lon="3.7303">
        <ele>203.16</ele>
        <time>2014-05-01T14:09:58Z</time>
      </trkpt>
      <trkpt lat="43.48632" lon="3.73012">
        <ele>200.4</ele>
        <time>2014-05-01T14:10:16Z</time>
      </trkpt>
      <trkpt lat="43.48632" lon="3.72995">
        <ele>197.26</ele>
        <time>2014-05-01T14:10:32Z</time>
      </trkpt>
      <trkpt lat="43.48633" lon="3.72994">
        <ele>196.94</ele>
        <time>2014-05-01T14:10:34Z</time>
      </trkpt>
      <trkpt lat="43.48642" lon="3.72986">
        <ele>195.31</ele>
        <time>2014-05-01T14:10:48Z</time>
      </trkpt>
      <trkpt lat="43.48644" lon="3.7297">
        <ele>192.84</ele>
        <time>2014-05-01T14:11:05Z</time>
      </trkpt>
      <trkpt lat="43.48652" lon="3.72959">
        <ele>190.15</ele>
        <time>2014-05-01T14:11:25Z</time>
      </trkpt>
      <trkpt lat="43.48662" lon="3.7295">
        <ele>187.35</ele>
        <time>2014-05-01T14:11:42Z</time>
      </trkpt>
      <trkpt lat="43.4867" lon="3.72945">
        <ele>185.79</ele>
        <time>2014-05-01T14:11:53Z</time>
      </trkpt>
      <trkpt lat="43.48678" lon="3.72934">
        <ele>182.51</ele>
        <time>2014-05-01T14:12:11Z</time>
      </trkpt>
      <trkpt lat="43.48686" lon="3.72922">
        <ele>179.98</ele>
        <time>2014-05-01T14:12:29Z</time>
      </trkpt>
      <trkpt lat="43.48692" lon="3.72906">
        <ele>176.77</ele>
        <time>2014-05-01T14:12:46Z</time>
      </trkpt>
      <trkpt lat="43.48699" lon="3.72908">
        <ele>175.15</ele>
        <time>2014-05-01T14:13:01Z</time>
      </trkpt>
      <trkpt lat="43.48708" lon="3.72902">
        <ele>172.39</ele>
        <time>2014-05-01T14:13:20Z</time>
      </trkpt>
      <trkpt lat="43.48716" lon="3.72891">
        <ele>169.76</ele>
        <time>2014-05-01T14:13:38Z</time>
      </trkpt>
      <trkpt lat="43.48724" lon="3.7288">
        <ele>166.88</ele>
        <time>2014-05-01T14:13:56Z</time>
      </trkpt>
      <trkpt lat="43.48737" lon="3.72867">
        <ele>163.76</ele>
        <time>2014-05-01T14:14:17Z</time>
      </trkpt>
      <trkpt lat="43.48737" lon="3.7286">
        <ele>162.68</ele>
        <time>2014-05-01T14:14:36Z</time>
      </trkpt>
      <trkpt lat="43.48737" lon="3.72855">
        <ele>162.85</ele>
        <time>2014-05-01T14:14:59Z</time>
      </trkpt>
      <trkpt lat="43.48734" lon="3.72861">
        <ele>162.44</ele>
        <time>2014-05-01T14:15:21Z</time>
      </trkpt>
      <trkpt lat="43.48733" lon="3.72863">
        <ele>163.66</ele>
        <time>2014-05-01T14:15:53Z</time>
      </trkpt>
      <trkpt lat="43.48731" lon="3.72864">
        <ele>164.09</ele>
        <time>2014-05-01T14:16:24Z</time>
      </trkpt>
      <trkpt lat="43.48733" lon="3.72868">
        <ele>163.58</ele>
        <time>2014-05-01T14:16:53Z</time>
      </trkpt>
      <trkpt lat="43.48738" lon="3.72866">
        <ele>163.84</ele>
        <time>2014-05-01T14:17:24Z</time>
      </trkpt>
      <trkpt lat="43.4874" lon="3.72864">
        <ele>163.6</ele>
        <time>2014-05-01T14:18:00Z</time>
      </trkpt>
      <trkpt lat="43.48739" lon="3.72866">
        <ele>163</ele>
        <time>2014-05-01T14:18:35Z</time>
      </trkpt>
      <trkpt lat="43.48736" lon="3.72867">
        <ele>163.41</ele>
        <time>2014-05-01T14:19:06Z</time>
      </trkpt>
      <trkpt lat="43.48738" lon="3.72864">
        <ele>163.44</ele>
        <time>2014-05-01T14:19:40Z</time>
      </trkpt>
      <trkpt lat="43.48739" lon="3.72863">
        <ele>164.08</ele>
        <time>2014-05-01T14:20:16Z</time>
      </trkpt>
      <trkpt lat="43.48738" lon="3.72862">
        <ele>163.87</ele>
        <time>2014-05-01T14:20:44Z</time>
      </trkpt>
      <trkpt lat="43.4873" lon="3.7287">
        <ele>165.48</ele>
        <time>2014-05-01T14:21:02Z</time>
      </trkpt>
      <trkpt lat="43.48719" lon="3.72877">
        <ele>167.86</ele>
        <time>2014-05-01T14:21:21Z</time>
      </trkpt>
      <trkpt lat="43.48712" lon="3.7289">
        <ele>170.06</ele>
        <time>2014-05-01T14:21:39Z</time>
      </trkpt>
      <trkpt lat="43.48703" lon="3.72898">
        <ele>173.15</ele>
        <time>2014-05-01T14:21:56Z</time>
      </trkpt>
      <trkpt lat="43.48694" lon="3.72908">
        <ele>175.95</ele>
        <time>2014-05-01T14:22:15Z</time>
      </trkpt>
      <trkpt lat="43.48686" lon="3.72916">
        <ele>178.48</ele>
        <time>2014-05-01T14:22:32Z</time>
      </trkpt>
      <trkpt lat="43.48676" lon="3.72929">
        <ele>181.58</ele>
        <time>2014-05-01T14:22:52Z</time>
      </trkpt>
      <trkpt lat="43.48665" lon="3.72937">
        <ele>184.61</ele>
        <time>2014-05-01T14:23:09Z</time>
      </trkpt>
      <trkpt lat="43.48662" lon="3.72943">
        <ele>185.32</ele>
        <time>2014-05-01T14:23:21Z</time>
      </trkpt>
      <trkpt lat="43.48651" lon="3.72952">
        <ele>187.45</ele>
        <time>2014-05-01T14:23:36Z</time>
      </trkpt>
      <trkpt lat="43.48644" lon="3.72964">
        <ele>189.6</ele>
        <time>2014-05-01T14:23:52Z</time>
      </trkpt>
      <trkpt lat="43.48643" lon="3.72974">
        <ele>190.95</ele>
        <time>2014-05-01T14:24:06Z</time>
      </trkpt>
      <trkpt lat="43.48642" lon="3.7298">
        <ele>192.02</ele>
        <time>2014-05-01T14:24:11Z</time>
      </trkpt>
      <trkpt lat="43.48638" lon="3.72987">
        <ele>192.88</ele>
        <time>2014-05-01T14:24:18Z</time>
      </trkpt>
      <trkpt lat="43.48632" lon="3.72991">
        <ele>194.48</ele>
        <time>2014-05-01T14:24:26Z</time>
      </trkpt>
      <trkpt lat="43.48629" lon="3.73">
        <ele>196.5</ele>
        <time>2014-05-01T14:24:37Z</time>
      </trkpt>
      <trkpt lat="43.4863" lon="3.73018">
        <ele>199.56</ele>
        <time>2014-05-01T14:24:53Z</time>
      </trkpt>
      <trkpt lat="43.48627" lon="3.73027">
        <ele>201.4</ele>
        <time>2014-05-01T14:25:03Z</time>
      </trkpt>
      <trkpt lat="43.48622" lon="3.73033">
        <ele>203.25</ele>
        <time>2014-05-01T14:25:17Z</time>
      </trkpt>
      <trkpt lat="43.48622" lon="3.73043">
        <ele>205.18</ele>
        <time>2014-05-01T14:25:37Z</time>
      </trkpt>
      <trkpt lat="43.48619" lon="3.73053">
        <ele>205.62</ele>
        <time>2014-05-01T14:25:51Z</time>
      </trkpt>
      <trkpt lat="43.48615" lon="3.73069">
        <ele>207.77</ele>
        <time>2014-05-01T14:26:06Z</time>
      </trkpt>
      <trkpt lat="43.48614" lon="3.73073">
        <ele>208.78</ele>
        <time>2014-05-01T14:26:11Z</time>
      </trkpt>
      <trkpt lat="43.48612" lon="3.73075">
        <ele>211.35</ele>
        <time>2014-05-01T14:26:25Z</time>
      </trkpt>
      <trkpt lat="43.48618" lon="3.7306">
        <ele>209.45</ele>
        <time>2014-05-01T14:26:42Z</time>
      </trkpt>
      <trkpt lat="43.48619" lon="3.73058">
        <ele>209.18</ele>
        <time>2014-05-01T14:26:44Z</time>
      </trkpt>
      <trkpt lat="43.48626" lon="3.73045">
        <ele>207.2</ele>
        <time>2014-05-01T14:26:57Z</time>
      </trkpt>
      <trkpt lat="43.48629" lon="3.73034">
        <ele>204.1</ele>
        <time>2014-05-01T14:27:12Z</time>
      </trkpt>
      <trkpt lat="43.48632" lon="3.73018">
        <ele>201.58</ele>
        <time>2014-05-01T14:27:27Z</time>
      </trkpt>
      <trkpt lat="43.48633" lon="3.73002">
        <ele>198.55</ele>
        <time>2014-05-01T14:27:42Z</time>
      </trkpt>
      <trkpt lat="43.4864" lon="3.72994">
        <ele>196.44</ele>
        <time>2014-05-01T14:27:57Z</time>
      </trkpt>
      <trkpt lat="43.48643" lon="3.72979">
        <ele>193.7</ele>
        <time>2014-05-01T14:28:13Z</time>
      </trkpt>
      <trkpt lat="43.48648" lon="3.72964">
        <ele>190.91</ele>
        <time>2014-05-01T14:28:32Z</time>
      </trkpt>
      <trkpt lat="43.48651" lon="3.72961">
        <ele>190.26</ele>
        <time>2014-05-01T14:28:36Z</time>
      </trkpt>
      <trkpt lat="43.48658" lon="3.72955">
        <ele>188.33</ele>
        <time>2014-05-01T14:28:46Z</time>
      </trkpt>
      <trkpt lat="43.4866" lon="3.72955">
        <ele>187.99</ele>
        <time>2014-05-01T14:28:48Z</time>
      </trkpt>
      <trkpt lat="43.48665" lon="3.72947">
        <ele>187</ele>
        <time>2014-05-01T14:28:55Z</time>
      </trkpt>
      <trkpt lat="43.4867" lon="3.72928">
        <ele>184.01</ele>
        <time>2014-05-01T14:29:12Z</time>
      </trkpt>
      <trkpt lat="43.48677" lon="3.72913">
        <ele>181.19</ele>
        <time>2014-05-01T14:29:29Z</time>
      </trkpt>
      <trkpt lat="43.48681" lon="3.729">
        <ele>178.77</ele>
        <time>2014-05-01T14:29:45Z</time>
      </trkpt>
      <trkpt lat="43.48683" lon="3.72895">
        <ele>178.12</ele>
        <time>2014-05-01T14:29:51Z</time>
      </trkpt>
      <trkpt lat="43.48688" lon="3.72884">
        <ele>176.84</ele>
        <time>2014-05-01T14:30:00Z</time>
      </trkpt>
      <trkpt lat="43.48688" lon="3.72875">
        <ele>175.98</ele>
        <time>2014-05-01T14:30:05Z</time>
      </trkpt>
      <trkpt lat="43.48687" lon="3.72869">
        <ele>175.09</ele>
        <time>2014-05-01T14:30:09Z</time>
      </trkpt>
      <trkpt lat="43.48688" lon="3.72855">
        <ele>172.59</ele>
        <time>2014-05-01T14:30:23Z</time>
      </trkpt>
      <trkpt lat="43.48692" lon="3.72839">
        <ele>169.84</ele>
        <time>2014-05-01T14:30:42Z</time>
      </trkpt>
      <trkpt lat="43.48689" lon="3.72823">
        <ele>166.81</ele>
        <time>2014-05-01T14:30:56Z</time>
      </trkpt>
      <trkpt lat="43.48694" lon="3.72809">
        <ele>163.98</ele>
        <time>2014-05-01T14:31:14Z</time>
      </trkpt>
      <trkpt lat="43.4871" lon="3.72796">
        <ele>163.57</ele>
        <time>2014-05-01T14:31:36Z</time>
      </trkpt>
      <trkpt lat="43.48724" lon="3.72771">
        <ele>162.62</ele>
        <time>2014-05-01T14:31:55Z</time>
      </trkpt>
      <trkpt lat="43.48737" lon="3.72747">
        <ele>162.39</ele>
        <time>2014-05-01T14:32:14Z</time>
      </trkpt>
      <trkpt lat="43.48737" lon="3.72746">
        <ele>162.46</ele>
        <time>2014-05-01T14:32:16Z</time>
      </trkpt>
      <trkpt lat="43.4874" lon="3.72736">
        <ele>162.68</ele>
        <time>2014-05-01T14:32:35Z</time>
      </trkpt>
      <trkpt lat="43.48738" lon="3.7272">
        <ele>162.28</ele>
        <time>2014-05-01T14:32:56Z</time>
      </trkpt>
      <trkpt lat="43.48739" lon="3.72719">
        <ele>163.36</ele>
        <time>2014-05-01T14:33:17Z</time>
      </trkpt>
      <trkpt lat="43.4874" lon="3.7272">
        <ele>163.43</ele>
        <time>2014-05-01T14:34:08Z</time>
      </trkpt>
      <trkpt lat="43.48741" lon="3.72718">
        <ele>163.28</ele>
        <time>2014-05-01T14:34:11Z</time>
      </trkpt>
    </trkseg>
  </trk>
</gpx>